Observation data for Claude 12 Southwest on 11/19/2019      Previous  Date       Current Mesonet Observations  Soil Data  Daily Summary Page  Observations in Plain Language
KCL1 190600Z 20003KT 15/00 A30 RMK A01 T01470001  RH  037%=      5-min Rain = 0
KCL1 190601Z 20003KT 15/00 A30 RMK A01 T01480000  RH  037%=      5-min Rain = 0
KCL1 190602Z 20003KT 15/00 A30 RMK A01 T01480000  RH  036%=      5-min Rain = 0
KCL1 190603Z 19003KT 15/00 A30 RMK A01 T01480001  RH  036%=      5-min Rain = 0
KCL1 190604Z 19003KT 15/00 A30 RMK A01 T01480000  RH  036%=      5-min Rain = 0
KCL1 190605Z 19003KT 15/00 A30 RMK A01 T01490000  RH  036%=      5-min Rain = 0
KCL1 190606Z 19003KT 15/00 A30 RMK A01 T01490000  RH  036%=      5-min Rain = 0
KCL1 190607Z 19003KT 15/00 A30 RMK A01 T01510001  RH  036%=      5-min Rain = 0
KCL1 190608Z 19003KT 15/00 A30 RMK A01 T01520001  RH  036%=      5-min Rain = 0
KCL1 190609Z 19003KT 15/00 A30 RMK A01 T01530001  RH  035%=      5-min Rain = 0
KCL1 190610Z 19003KT 15/00 A30 RMK A01 T01530001  RH  035%=      5-min Rain = 0
KCL1 190611Z 19002KT 15/00 A30 RMK A01 T01530001  RH  035%=      5-min Rain = 0
KCL1 190612Z 19002KT 15/00 A30 RMK A01 T01530000  RH  035%=      5-min Rain = 0
KCL1 190613Z 19002KT 15/00 A30 RMK A01 T01520000  RH  035%=      5-min Rain = 0
KCL1 190614Z 17002KT 15/00 A30 RMK A01 T015100-0  RH  036%=      5-min Rain = 0
KCL1 190615Z 17002KT 15/00 A30 RMK A01 T01510000  RH  036%=      5-min Rain = 0
KCL1 190616Z 16002KT 15/00 A30 RMK A01 T01500000  RH  036%=      5-min Rain = 0
KCL1 190617Z 17003KT 15/00 A30 RMK A01 T014900-0  RH  036%=      5-min Rain = 0
KCL1 190618Z 17003KT 15/M00 A30 RMK A01 T01471001  RH  036%=      5-min Rain = 0
KCL1 190619Z 18003KT 15/M00 A30 RMK A01 T01461001  RH  037%=      5-min Rain = 0
KCL1 190620Z 18003KT 15/M00 A30 RMK A01 T01451001  RH  037%=      5-min Rain = 0
KCL1 190621Z 19004KT 14/M00 A30 RMK A01 T01441001  RH  037%=      5-min Rain = 0
KCL1 190622Z 19004KT 15/00 A30 RMK A01 T014500-0  RH  037%=      5-min Rain = 0
KCL1 190623Z 19004KT 15/00 A30 RMK A01 T01460000  RH  037%=      5-min Rain = 0
KCL1 190624Z 20004KT 15/00 A30 RMK A01 T01470000  RH  037%=      5-min Rain = 0
KCL1 190625Z 20003KT 15/00 A30 RMK A01 T01470000  RH  037%=      5-min Rain = 0
KCL1 190626Z 19003KT 15/00 A30 RMK A01 T01470000  RH  037%=      5-min Rain = 0
KCL1 190627Z 20003KT 15/00 A30 RMK A01 T014700-0  RH  037%=      5-min Rain = 0
KCL1 190628Z 20003KT 15/00 A30 RMK A01 T014700-0  RH  036%=      5-min Rain = 0
KCL1 190629Z 20003KT 15/00 A30 RMK A01 T014700-0  RH  037%=      5-min Rain = 0
KCL1 190630Z 20002KT 15/00 A30 RMK A01 T01470000  RH  037%=      5-min Rain = 0
KCL1 190631Z 18002KT 15/00 A30 RMK A01 T014700-0  RH  037%=      5-min Rain = 0
KCL1 190632Z 17002KT 15/00 A30 RMK A01 T014600-0  RH  037%=      5-min Rain = 0
KCL1 190633Z 16002KT 15/00 A30 RMK A01 T014500-0  RH  037%=      5-min Rain = 0
KCL1 190634Z 15003KT 15/00 A2999 RMK A01 T01450000  RH  037%=      5-min Rain = 0
KCL1 190635Z 13003KT 14/00 A2999 RMK A01 T014400-0  RH  037%=      5-min Rain = 0
KCL1 190636Z 13004KT 14/M00 A2999 RMK A01 T01431001  RH  037%=      5-min Rain = 0
KCL1 190637Z 12004KT 14/M00 A2999 RMK A01 T01421001  RH  038%=      5-min Rain = 0
KCL1 190638Z 12005KT 14/M00 A2999 RMK A01 T01401001  RH  038%=      5-min Rain = 0
KCL1 190639Z 12005KT 14/M00 A2999 RMK A01 T01401001  RH  038%=      5-min Rain = 0
KCL1 190640Z 12005KT 14/M00 A2999 RMK A01 T01391001  RH  038%=      5-min Rain = 0
KCL1 190641Z 12006KT 14/M00 A2999 RMK A01 T01381001  RH  038%=      5-min Rain = 0
KCL1 190642Z 12006KT 14/M00 A2999 RMK A01 T01361002  RH  039%=      5-min Rain = 0
KCL1 190643Z 11006KT 13/M00 A2999 RMK A01 T01341002  RH  039%=      5-min Rain = 0
KCL1 190644Z 11006KT 13/M00 A2999 RMK A01 T01321002  RH  040%=      5-min Rain = 0
KCL1 190645Z 11007KT 13/M00 A2999 RMK A01 T01301003  RH  040%=      5-min Rain = 0
KCL1 190646Z 12007KT 13/M00 A2999 RMK A01 T01291003  RH  040%=      5-min Rain = 0
KCL1 190647Z 12007KT 13/M00 A2999 RMK A01 T01291002  RH  041%=      5-min Rain = 0
KCL1 190648Z 12007KT 13/M00 A2999 RMK A01 T01291002  RH  041%=      5-min Rain = 0
KCL1 190649Z 12008KT 13/M00 A2999 RMK A01 T01281002  RH  041%=      5-min Rain = 0
KCL1 190650Z 12008KT 13/M00 A2999 RMK A01 T01271002  RH  041%=      5-min Rain = 0
KCL1 190651Z 12008KT 13/M00 A2999 RMK A01 T01251002  RH  041%=      5-min Rain = 0
KCL1 190652Z 12008KT 13/M00 A2999 RMK A01 T01251002  RH  042%=      5-min Rain = 0
KCL1 190653Z 12008KT 12/M00 A2999 RMK A01 T01231002  RH  042%=      5-min Rain = 0
KCL1 190654Z 13007KT 12/M00 A2999 RMK A01 T01221002  RH  042%=      5-min Rain = 0
KCL1 190655Z 13007KT 12/M00 A2999 RMK A01 T01201002  RH  043%=      5-min Rain = 0
KCL1 190656Z 14006KT 12/M00 A2999 RMK A01 T01191002  RH  043%=      5-min Rain = 0
KCL1 190657Z 16005KT 12/M00 A2999 RMK A01 T01181002  RH  044%=      5-min Rain = 0
KCL1 190658Z 16006KT 12/M00 A2999 RMK A01 T01171001  RH  044%=      5-min Rain = 0
KCL1 190659Z 17006KT 12/00 A2999 RMK A01 T01170001  RH  045%=      5-min Rain = 0
KCL1 190700Z 17005KT 12/00 A2999 RMK A01 T01190002  RH  045%=      5-min Rain = 0
KCL1 190701Z 15006KT 12/00 A2999 RMK A01 T01210003  RH  044%=      5-min Rain = 0
KCL1 190702Z 16006KT 12/00 A2999 RMK A01 T01240004  RH  044%=      5-min Rain = 0
KCL1 190703Z 14006KT 13/00 A2999 RMK A01 T01260004  RH  043%=      5-min Rain = 0
KCL1 190704Z 15006KT 13/00 A2998 RMK A01 T01280004  RH  043%=      5-min Rain = 0
KCL1 190705Z 14006KT 13/00 A2998 RMK A01 T01270004  RH  043%=      5-min Rain = 0
KCL1 190706Z 14006KT 13/00 A2998 RMK A01 T01270004  RH  043%=      5-min Rain = 0
KCL1 190707Z 14006KT 13/00 A2998 RMK A01 T01260003  RH  043%=      5-min Rain = 0
KCL1 190708Z 14006KT 13/00 A2998 RMK A01 T01250003  RH  043%=      5-min Rain = 0
KCL1 190709Z 13006KT 13/00 A2998 RMK A01 T01250003  RH  043%=      5-min Rain = 0
KCL1 190710Z 13006KT 12/00 A2998 RMK A01 T01240002  RH  043%=      5-min Rain = 0
KCL1 190711Z 13006KT 12/00 A2998 RMK A01 T01240002  RH  043%=      5-min Rain = 0
KCL1 190712Z 13005KT 12/00 A2998 RMK A01 T01240002  RH  043%=      5-min Rain = 0
KCL1 190713Z 13005KT 12/00 A2998 RMK A01 T01240002  RH  043%=      5-min Rain = 0
KCL1 190714Z 13005KT 12/00 A2998 RMK A01 T01240002  RH  043%=      5-min Rain = 0
KCL1 190715Z 13006KT 12/00 A2998 RMK A01 T01230002  RH  043%=      5-min Rain = 0
KCL1 190716Z 13006KT 12/00 A2998 RMK A01 T01240002  RH  043%=      5-min Rain = 0
KCL1 190717Z 13006KT 12/00 A2998 RMK A01 T01240002  RH  043%=      5-min Rain = 0
KCL1 190718Z 13006KT 12/00 A2998 RMK A01 T01230001  RH  043%=      5-min Rain = 0
KCL1 190719Z 13006KT 12/00 A2998 RMK A01 T01220001  RH  043%=      5-min Rain = 0
KCL1 190720Z 13006KT 12/00 A2998 RMK A01 T01200001  RH  044%=      5-min Rain = 0
KCL1 190721Z 14006KT 12/00 A2998 RMK A01 T01190001  RH  044%=      5-min Rain = 0
KCL1 190722Z 14005KT 12/00 A2998 RMK A01 T01190001  RH  044%=      5-min Rain = 0
KCL1 190723Z 15005KT 12/00 A2998 RMK A01 T01180000  RH  044%=      5-min Rain = 0
KCL1 190724Z 16005KT 12/00 A2999 RMK A01 T01180000  RH  044%=      5-min Rain = 0
KCL1 190725Z 18004KT 12/00 A2999 RMK A01 T01190000  RH  044%=      5-min Rain = 0
KCL1 190726Z 18005KT 12/00 A2999 RMK A01 T01210000  RH  043%=      5-min Rain = 0
KCL1 190727Z 19005KT 12/00 A2999 RMK A01 T01220000  RH  043%=      5-min Rain = 0
KCL1 190728Z 18005KT 13/00 A2999 RMK A01 T01250001  RH  042%=      5-min Rain = 0
KCL1 190729Z 19005KT 13/00 A2999 RMK A01 T01300002  RH  041%=      5-min Rain = 0
KCL1 190730Z 19004KT 13/00 A2999 RMK A01 T01340002  RH  040%=      5-min Rain = 0
KCL1 190731Z 20004KT 14/00 A2999 RMK A01 T01360001  RH  040%=      5-min Rain = 0
KCL1 190732Z 20003KT 14/00 A2999 RMK A01 T01370001  RH  039%=      5-min Rain = 0
KCL1 190733Z 20003KT 14/00 A2999 RMK A01 T01370001  RH  039%=      5-min Rain = 0
KCL1 190734Z 20002KT 14/00 A2999 RMK A01 T01370001  RH  039%=      5-min Rain = 0
KCL1 190735Z 22002KT 14/00 A2999 RMK A01 T01360001  RH  039%=      5-min Rain = 0
KCL1 190736Z 21002KT 14/00 A2999 RMK A01 T01360001  RH  040%=      5-min Rain = 0
KCL1 190737Z 20002KT 14/00 A2999 RMK A01 T01350001  RH  040%=      5-min Rain = 0
KCL1 190738Z 20002KT 14/00 A2999 RMK A01 T01350001  RH  040%=      5-min Rain = 0
KCL1 190739Z 19002KT 14/00 A2999 RMK A01 T01350001  RH  040%=      5-min Rain = 0
KCL1 190740Z 19002KT 14/00 A2999 RMK A01 T01350001  RH  040%=      5-min Rain = 0
KCL1 190741Z 18002KT 14/00 A2999 RMK A01 T01350000  RH  040%=      5-min Rain = 0
KCL1 190742Z 17002KT 14/00 A2999 RMK A01 T01350000  RH  040%=      5-min Rain = 0
KCL1 190743Z 17002KT 13/00 A2999 RMK A01 T01340000  RH  040%=      5-min Rain = 0
KCL1 190744Z 15002KT 13/00 A2999 RMK A01 T01340000  RH  040%=      5-min Rain = 0
KCL1 190745Z 15002KT 13/00 A2999 RMK A01 T01340000  RH  040%=      5-min Rain = 0
KCL1 190746Z 15002KT 13/00 A2999 RMK A01 T01340000  RH  040%=      5-min Rain = 0
KCL1 190747Z 14003KT 14/00 A2999 RMK A01 T01350000  RH  040%=      5-min Rain = 0
KCL1 190748Z 13002KT 14/00 A2999 RMK A01 T01360000  RH  039%=      5-min Rain = 0
KCL1 190749Z 12002KT 14/00 A2999 RMK A01 T01360000  RH  039%=      5-min Rain = 0
KCL1 190750Z 13002KT 14/00 A2998 RMK A01 T01370000  RH  039%=      5-min Rain = 0
KCL1 190751Z 13003KT 14/00 A2998 RMK A01 T01370000  RH  039%=      5-min Rain = 0
KCL1 190752Z 12003KT 14/00 A2998 RMK A01 T01380000  RH  039%=      5-min Rain = 0
KCL1 190753Z 12003KT 14/00 A2998 RMK A01 T013700-0  RH  039%=      5-min Rain = 0
KCL1 190754Z 12003KT 14/M00 A2998 RMK A01 T01361001  RH  039%=      5-min Rain = 0
KCL1 190755Z 12003KT 13/M00 A2998 RMK A01 T01331001  RH  040%=      5-min Rain = 0
KCL1 190756Z 12003KT 13/M00 A2998 RMK A01 T01321001  RH  040%=      5-min Rain = 0
KCL1 190757Z 12003KT 13/M00 A2999 RMK A01 T01311001  RH  040%=      5-min Rain = 0
KCL1 190758Z 12003KT 13/M00 A2999 RMK A01 T01311001  RH  040%=      5-min Rain = 0
KCL1 190759Z 12003KT 13/M00 A2999 RMK A01 T01311001  RH  040%=      5-min Rain = 0
KCL1 190800Z 11003KT 13/00 A2998 RMK A01 T013200-0  RH  040%=      5-min Rain = 0
KCL1 190801Z 11003KT 13/00 A2998 RMK A01 T013200-0  RH  040%=      5-min Rain = 0
KCL1 190802Z 11004KT 13/M00 A2998 RMK A01 T01321001  RH  040%=      5-min Rain = 0
KCL1 190803Z 10004KT 13/M00 A2998 RMK A01 T01321001  RH  040%=      5-min Rain = 0
KCL1 190804Z 10005KT 13/M00 A2998 RMK A01 T01331001  RH  040%=      5-min Rain = 0
KCL1 190805Z 10005KT 13/M00 A2998 RMK A01 T01321001  RH  040%=      5-min Rain = 0
KCL1 190806Z 10005KT 13/M00 A2998 RMK A01 T01311001  RH  040%=      5-min Rain = 0
KCL1 190807Z 10005KT 13/M00 A2998 RMK A01 T01311001  RH  040%=      5-min Rain = 0
KCL1 190808Z 10005KT 13/M00 A2998 RMK A01 T01301001  RH  041%=      5-min Rain = 0
KCL1 190809Z 10005KT 13/M00 A2999 RMK A01 T01291001  RH  041%=      5-min Rain = 0
KCL1 190810Z 11005KT 13/M00 A2999 RMK A01 T01291001  RH  041%=      5-min Rain = 0
KCL1 190811Z 11005KT 13/M00 A2999 RMK A01 T01291001  RH  041%=      5-min Rain = 0
KCL1 190812Z 11005KT 13/M00 A2999 RMK A01 T01291001  RH  041%=      5-min Rain = 0
KCL1 190813Z 11004KT 13/M00 A2999 RMK A01 T01291001  RH  041%=      5-min Rain = 0
KCL1 190814Z 11004KT 13/M00 A2999 RMK A01 T01291001  RH  041%=      5-min Rain = 0
KCL1 190815Z 11004KT 13/M00 A2999 RMK A01 T01291001  RH  041%=      5-min Rain = 0
KCL1 190816Z 11004KT 13/M00 A2999 RMK A01 T01291001  RH  041%=      5-min Rain = 0
KCL1 190817Z 11004KT 13/M00 A2999 RMK A01 T01281001  RH  041%=      5-min Rain = 0
KCL1 190818Z 12004KT 13/M00 A2999 RMK A01 T01271002  RH  041%=      5-min Rain = 0
KCL1 190819Z 13004KT 13/M00 A2999 RMK A01 T01271002  RH  041%=      5-min Rain = 0
KCL1 190820Z 15004KT 13/M00 A2999 RMK A01 T01261002  RH  041%=      5-min Rain = 0
KCL1 190821Z 16004KT 12/M00 A2999 RMK A01 T01231003  RH  042%=      5-min Rain = 0
KCL1 190822Z 16004KT 12/M00 A2999 RMK A01 T01211003  RH  043%=      5-min Rain = 0
KCL1 190823Z 15004KT 12/M00 A2999 RMK A01 T01211002  RH  043%=      5-min Rain = 0
KCL1 190824Z 14004KT 12/M00 A2999 RMK A01 T01221002  RH  043%=      5-min Rain = 0
KCL1 190825Z 13003KT 12/M00 A2999 RMK A01 T01231001  RH  042%=      5-min Rain = 0
KCL1 190826Z 13004KT 13/M00 A2999 RMK A01 T01251001  RH  042%=      5-min Rain = 0
KCL1 190827Z 14003KT 13/00 A2999 RMK A01 T012700-0  RH  042%=      5-min Rain = 0
KCL1 190828Z 13003KT 13/M00 A2999 RMK A01 T01271001  RH  041%=      5-min Rain = 0
KCL1 190829Z 13003KT 13/00 A2999 RMK A01 T012800-0  RH  041%=      5-min Rain = 0
KCL1 190830Z 14003KT 13/00 A2999 RMK A01 T012800-0  RH  041%=      5-min Rain = 0
KCL1 190831Z 13004KT 13/00 A2999 RMK A01 T012800-0  RH  041%=      5-min Rain = 0
KCL1 190832Z 13004KT 13/M00 A2999 RMK A01 T01271001  RH  041%=      5-min Rain = 0
KCL1 190833Z 13003KT 13/00 A2999 RMK A01 T012700-0  RH  042%=      5-min Rain = 0
KCL1 190834Z 13003KT 13/M00 A2999 RMK A01 T01261001  RH  042%=      5-min Rain = 0
KCL1 190835Z 14003KT 13/M00 A2999 RMK A01 T01251001  RH  042%=      5-min Rain = 0
KCL1 190836Z 14003KT 12/M00 A2999 RMK A01 T01241001  RH  042%=      5-min Rain = 0
KCL1 190837Z 14003KT 12/M00 A2999 RMK A01 T01231001  RH  042%=      5-min Rain = 0
KCL1 190838Z 14003KT 12/M00 A2999 RMK A01 T01231001  RH  043%=      5-min Rain = 0
KCL1 190839Z 14003KT 12/M00 A2999 RMK A01 T01231001  RH  043%=      5-min Rain = 0
KCL1 190840Z 14003KT 12/00 A2999 RMK A01 T012400-0  RH  042%=      5-min Rain = 0
KCL1 190841Z 14003KT 13/00 A2999 RMK A01 T012500-0  RH  042%=      5-min Rain = 0
KCL1 190842Z 14003KT 13/00 A2999 RMK A01 T01260000  RH  042%=      5-min Rain = 0
KCL1 190843Z 14003KT 13/00 A2999 RMK A01 T01270000  RH  042%=      5-min Rain = 0
KCL1 190844Z 14003KT 13/00 A2999 RMK A01 T01270000  RH  042%=      5-min Rain = 0
KCL1 190845Z 14003KT 13/00 A2999 RMK A01 T01270000  RH  042%=      5-min Rain = 0
KCL1 190846Z 15003KT 13/00 A2999 RMK A01 T01270000  RH  042%=      5-min Rain = 0
KCL1 190847Z 15003KT 13/00 A2999 RMK A01 T01270000  RH  042%=      5-min Rain = 0
KCL1 190848Z 15003KT 13/00 A2999 RMK A01 T01270000  RH  042%=      5-min Rain = 0
KCL1 190849Z 15003KT 13/00 A2999 RMK A01 T01270000  RH  042%=      5-min Rain = 0
KCL1 190850Z 15003KT 13/00 A2999 RMK A01 T012700-0  RH  042%=      5-min Rain = 0
KCL1 190851Z 15003KT 13/00 A2999 RMK A01 T012600-0  RH  042%=      5-min Rain = 0
KCL1 190852Z 15003KT 12/M00 A2999 RMK A01 T01241001  RH  042%=      5-min Rain = 0
KCL1 190853Z 15003KT 12/M00 A2999 RMK A01 T01211001  RH  043%=      5-min Rain = 0
KCL1 190854Z 15002KT 12/M00 A2999 RMK A01 T01191002  RH  043%=      5-min Rain = 0
KCL1 190855Z 14002KT 12/M00 A2999 RMK A01 T01171002  RH  044%=      5-min Rain = 0
KCL1 190856Z 14002KT 11/M00 A30 RMK A01 T01141002  RH  045%=      5-min Rain = 0
KCL1 190857Z 13002KT 11/M00 A30 RMK A01 T01121001  RH  045%=      5-min Rain = 0
KCL1 190858Z 10002KT 11/M00 A2999 RMK A01 T01101001  RH  046%=      5-min Rain = 0
KCL1 190859Z 09001KT 10/M00 A2999 RMK A01 T01021003  RH  048%=      5-min Rain = 0
KCL1 190900Z 08001KT 10/M00 A2999 RMK A01 T00961003  RH  050%=      5-min Rain = 0
KCL1 190901Z 07001KT 09/M00 A2999 RMK A01 T00921002  RH  052%=      5-min Rain = 0
KCL1 190902Z 06002KT 09/M00 A2999 RMK A01 T00891001  RH  053%=      5-min Rain = 0
KCL1 190903Z 06002KT 09/00 A2999 RMK A01 T008700-0  RH  054%=      5-min Rain = 0
KCL1 190904Z 06002KT 09/00 A2999 RMK A01 T00880000  RH  054%=      5-min Rain = 0
KCL1 190905Z 06002KT 09/00 A2999 RMK A01 T008700-0  RH  054%=      5-min Rain = 0
KCL1 190906Z 07002KT 09/M00 A2999 RMK A01 T00871001  RH  054%=      5-min Rain = 0
KCL1 190907Z 07002KT 09/M00 A2999 RMK A01 T00871001  RH  054%=      5-min Rain = 0
KCL1 190908Z 08002KT 09/M00 A2999 RMK A01 T00861001  RH  054%=      5-min Rain = 0
KCL1 190909Z 08001KT 09/M00 A2999 RMK A01 T00871001  RH  054%=      5-min Rain = 0
KCL1 190910Z 11001KT 09/M00 A2999 RMK A01 T00881001  RH  054%=      5-min Rain = 0
KCL1 190911Z 12001KT 09/00 A2999 RMK A01 T009000-0  RH  053%=      5-min Rain = 0
KCL1 190912Z 14001KT 09/00 A2999 RMK A01 T00920000  RH  053%=      5-min Rain = 0
KCL1 190913Z 15002KT 10/00 A2999 RMK A01 T00950001  RH  052%=      5-min Rain = 0
KCL1 190914Z 18002KT 10/00 A2999 RMK A01 T00990001  RH  050%=      5-min Rain = 0
KCL1 190915Z 17002KT 10/00 A2999 RMK A01 T01020001  RH  049%=      5-min Rain = 0
KCL1 190916Z 17002KT 10/00 A2999 RMK A01 T01040000  RH  049%=      5-min Rain = 0
KCL1 190917Z 18003KT 11/00 A2999 RMK A01 T01060000  RH  048%=      5-min Rain = 0
KCL1 190918Z 19003KT 11/00 A2999 RMK A01 T01080000  RH  047%=      5-min Rain = 0
KCL1 190919Z 19003KT 11/M00 A2999 RMK A01 T01081001  RH  047%=      5-min Rain = 0
KCL1 190920Z 19003KT 11/M00 A2999 RMK A01 T01101001  RH  046%=      5-min Rain = 0
KCL1 190921Z 18003KT 11/00 A2999 RMK A01 T011100-0  RH  046%=      5-min Rain = 0
KCL1 190922Z 19003KT 11/M00 A2999 RMK A01 T01121001  RH  046%=      5-min Rain = 0
KCL1 190923Z 19003KT 11/00 A2999 RMK A01 T011400-0  RH  045%=      5-min Rain = 0
KCL1 190924Z 19003KT 11/M00 A2999 RMK A01 T01141001  RH  045%=      5-min Rain = 0
KCL1 190925Z 18003KT 11/M00 A2999 RMK A01 T01141001  RH  045%=      5-min Rain = 0
KCL1 190926Z 18003KT 11/M00 A2999 RMK A01 T01141001  RH  045%=      5-min Rain = 0
KCL1 190927Z 17002KT 11/M00 A2999 RMK A01 T01131001  RH  045%=      5-min Rain = 0
KCL1 190928Z 16003KT 11/M00 A2999 RMK A01 T01121001  RH  045%=      5-min Rain = 0
KCL1 190929Z 16003KT 11/M00 A2999 RMK A01 T01121001  RH  046%=      5-min Rain = 0
KCL1 190930Z 16002KT 11/M00 A2999 RMK A01 T01121002  RH  046%=      5-min Rain = 0
KCL1 190931Z 15002KT 11/M00 A2999 RMK A01 T01111002  RH  046%=      5-min Rain = 0
KCL1 190932Z 15002KT 11/M00 A2999 RMK A01 T01101002  RH  046%=      5-min Rain = 0
KCL1 190933Z 14002KT 11/M00 A2999 RMK A01 T01091002  RH  046%=      5-min Rain = 0
KCL1 190934Z 14002KT 11/M00 A2999 RMK A01 T01091002  RH  046%=      5-min Rain = 0
KCL1 190935Z 14002KT 11/M00 A2999 RMK A01 T01081002  RH  046%=      5-min Rain = 0
KCL1 190936Z 14002KT 11/M00 A2999 RMK A01 T01081002  RH  047%=      5-min Rain = 0
KCL1 190937Z 14003KT 11/M00 A2999 RMK A01 T01081002  RH  047%=      5-min Rain = 0
KCL1 190938Z 14003KT 11/M00 A2999 RMK A01 T01071002  RH  047%=      5-min Rain = 0
KCL1 190939Z 14003KT 11/M00 A2999 RMK A01 T01061002  RH  047%=      5-min Rain = 0
KCL1 190940Z 14003KT 11/M00 A2999 RMK A01 T01051003  RH  047%=      5-min Rain = 0
KCL1 190941Z 14003KT 11/M00 A2999 RMK A01 T01051002  RH  047%=      5-min Rain = 0
KCL1 190942Z 14003KT 10/M00 A2999 RMK A01 T01041002  RH  048%=      5-min Rain = 0
KCL1 190943Z 13003KT 10/M00 A2999 RMK A01 T01031002  RH  048%=      5-min Rain = 0
KCL1 190944Z 13003KT 10/M00 A2999 RMK A01 T01031002  RH  048%=      5-min Rain = 0
KCL1 190945Z 13003KT 10/M00 A2999 RMK A01 T01031002  RH  048%=      5-min Rain = 0
KCL1 190946Z 13003KT 10/M00 A2998 RMK A01 T01041002  RH  048%=      5-min Rain = 0
KCL1 190947Z 13003KT 10/M00 A2998 RMK A01 T01041002  RH  048%=      5-min Rain = 0
KCL1 190948Z 13003KT 10/M00 A2998 RMK A01 T01031002  RH  048%=      5-min Rain = 0
KCL1 190949Z 13004KT 10/M00 A2998 RMK A01 T01031002  RH  048%=      5-min Rain = 0
KCL1 190950Z 13004KT 10/M00 A2998 RMK A01 T01011002  RH  049%=      5-min Rain = 0
KCL1 190951Z 14004KT 10/M00 A2998 RMK A01 T00991003  RH  049%=      5-min Rain = 0
KCL1 190952Z 14004KT 10/M00 A2998 RMK A01 T00971003  RH  050%=      5-min Rain = 0
KCL1 190953Z 14004KT 10/M00 A2998 RMK A01 T00951003  RH  050%=      5-min Rain = 0
KCL1 190954Z 14004KT 09/M00 A2998 RMK A01 T00941003  RH  051%=      5-min Rain = 0
KCL1 190955Z 14004KT 09/M00 A2998 RMK A01 T00931003  RH  051%=      5-min Rain = 0
KCL1 190956Z 14004KT 09/M00 A2998 RMK A01 T00931003  RH  051%=      5-min Rain = 0
KCL1 190957Z 15004KT 09/M00 A2998 RMK A01 T00921003  RH  051%=      5-min Rain = 0
KCL1 190958Z 15004KT 09/M00 A2998 RMK A01 T00911003  RH  052%=      5-min Rain = 0
KCL1 190959Z 15005KT 09/M00 A2998 RMK A01 T00901004  RH  052%=      5-min Rain = 0
KCL1 191000Z 15004KT 09/M00 A2998 RMK A01 T00891003  RH  052%=      5-min Rain = 0
KCL1 191001Z 15004KT 09/M00 A2998 RMK A01 T00891003  RH  052%=      5-min Rain = 0
KCL1 191002Z 15004KT 09/M00 A2998 RMK A01 T00891003  RH  052%=      5-min Rain = 0
KCL1 191003Z 15004KT 09/M00 A2998 RMK A01 T00911002  RH  052%=      5-min Rain = 0
KCL1 191004Z 16004KT 09/M00 A2998 RMK A01 T00921002  RH  052%=      5-min Rain = 0
KCL1 191005Z 16004KT 09/M00 A2998 RMK A01 T00921002  RH  052%=      5-min Rain = 0
KCL1 191006Z 16004KT 09/M00 A2998 RMK A01 T00921002  RH  052%=      5-min Rain = 0
KCL1 191007Z 16004KT 09/M00 A2998 RMK A01 T00911002  RH  052%=      5-min Rain = 0
KCL1 191008Z 16004KT 09/M00 A2998 RMK A01 T00901002  RH  052%=      5-min Rain = 0
KCL1 191009Z 16004KT 09/M00 A2998 RMK A01 T00901002  RH  052%=      5-min Rain = 0
KCL1 191010Z 16004KT 09/M00 A2998 RMK A01 T00901002  RH  052%=      5-min Rain = 0
KCL1 191011Z 16004KT 09/M00 A2998 RMK A01 T00891002  RH  053%=      5-min Rain = 0
KCL1 191012Z 16004KT 09/M00 A2998 RMK A01 T00891002  RH  053%=      5-min Rain = 0
KCL1 191013Z 16004KT 09/M00 A2998 RMK A01 T00891002  RH  053%=      5-min Rain = 0
KCL1 191014Z 15004KT 09/M00 A2998 RMK A01 T00891002  RH  053%=      5-min Rain = 0
KCL1 191015Z 15004KT 09/M00 A2998 RMK A01 T00891003  RH  053%=      5-min Rain = 0
KCL1 191016Z 15004KT 09/M00 A2998 RMK A01 T00881003  RH  053%=      5-min Rain = 0
KCL1 191017Z 15005KT 09/M00 A2998 RMK A01 T00871003  RH  053%=      5-min Rain = 0
KCL1 191018Z 15005KT 09/M00 A2998 RMK A01 T00861003  RH  054%=      5-min Rain = 0
KCL1 191019Z 15005KT 09/M00 A2998 RMK A01 T00861003  RH  054%=      5-min Rain = 0
KCL1 191020Z 15005KT 09/M00 A2997 RMK A01 T00861003  RH  054%=      5-min Rain = 0
KCL1 191021Z 15005KT 09/M00 A2997 RMK A01 T00871003  RH  053%=      5-min Rain = 0
KCL1 191022Z 15005KT 09/M00 A2997 RMK A01 T00881004  RH  053%=      5-min Rain = 0
KCL1 191023Z 16005KT 09/M00 A2997 RMK A01 T00901004  RH  052%=      5-min Rain = 0
KCL1 191024Z 16005KT 09/M01 A2997 RMK A01 T00911005  RH  051%=      5-min Rain = 0
KCL1 191025Z 16005KT 09/M01 A2997 RMK A01 T00921005  RH  050%=      5-min Rain = 0
KCL1 191026Z 16005KT 09/M01 A2997 RMK A01 T00931005  RH  050%=      5-min Rain = 0
KCL1 191027Z 15005KT 09/M01 A2997 RMK A01 T00931006  RH  050%=      5-min Rain = 0
KCL1 191028Z 15005KT 09/M01 A2997 RMK A01 T00931006  RH  050%=      5-min Rain = 0
KCL1 191029Z 15005KT 09/M01 A2997 RMK A01 T00911006  RH  050%=      5-min Rain = 0
KCL1 191030Z 15005KT 09/M01 A2997 RMK A01 T00901007  RH  051%=      5-min Rain = 0
KCL1 191031Z 14005KT 09/M01 A2997 RMK A01 T00891007  RH  051%=      5-min Rain = 0
KCL1 191032Z 14005KT 09/M01 A2997 RMK A01 T00871007  RH  052%=      5-min Rain = 0
KCL1 191033Z 14005KT 09/M01 A2997 RMK A01 T00861006  RH  052%=      5-min Rain = 0
KCL1 191034Z 14005KT 08/M01 A2997 RMK A01 T00841007  RH  053%=      5-min Rain = 0
KCL1 191035Z 14005KT 08/M01 A2997 RMK A01 T00821007  RH  053%=      5-min Rain = 0
KCL1 191036Z 14005KT 08/M01 A2997 RMK A01 T00811007  RH  054%=      5-min Rain = 0
KCL1 191037Z 14005KT 08/M01 A2997 RMK A01 T00791006  RH  055%=      5-min Rain = 0
KCL1 191038Z 14005KT 08/M01 A2997 RMK A01 T00771006  RH  056%=      5-min Rain = 0
KCL1 191039Z 15005KT 08/M01 A2997 RMK A01 T00771005  RH  056%=      5-min Rain = 0
KCL1 191040Z 15006KT 08/M01 A2997 RMK A01 T00761005  RH  056%=      5-min Rain = 0
KCL1 191041Z 16006KT 08/M01 A2997 RMK A01 T00761005  RH  057%=      5-min Rain = 0
KCL1 191042Z 16006KT 08/M00 A2997 RMK A01 T00781004  RH  056%=      5-min Rain = 0
KCL1 191043Z 17006KT 08/M01 A2997 RMK A01 T00791005  RH  055%=      5-min Rain = 0
KCL1 191044Z 18006KT 08/M01 A2997 RMK A01 T00801007  RH  054%=      5-min Rain = 0
KCL1 191045Z 18007KT 08/M01 A2997 RMK A01 T00811009  RH  053%=      5-min Rain = 0
KCL1 191046Z 18007KT 09/M01 A2997 RMK A01 T00851010  RH  051%=      5-min Rain = 0
KCL1 191047Z 18007KT 09/M01 A2997 RMK A01 T00901009  RH  050%=      5-min Rain = 0
KCL1 191048Z 18007KT 10/M01 A2997 RMK A01 T00951007  RH  049%=      5-min Rain = 0
KCL1 191049Z 19006KT 10/M01 A2997 RMK A01 T00971007  RH  048%=      5-min Rain = 0
KCL1 191050Z 19006KT 10/M01 A2997 RMK A01 T00991007  RH  048%=      5-min Rain = 0
KCL1 191051Z 19006KT 10/M01 A2997 RMK A01 T01011007  RH  047%=      5-min Rain = 0
KCL1 191052Z 19006KT 10/M01 A2997 RMK A01 T01021007  RH  047%=      5-min Rain = 0
KCL1 191053Z 18006KT 10/M01 A2997 RMK A01 T01031007  RH  046%=      5-min Rain = 0
KCL1 191054Z 18006KT 10/M01 A2997 RMK A01 T01031007  RH  046%=      5-min Rain = 0
KCL1 191055Z 18005KT 10/M01 A2997 RMK A01 T01031007  RH  047%=      5-min Rain = 0
KCL1 191056Z 18006KT 10/M01 A2997 RMK A01 T01021007  RH  047%=      5-min Rain = 0
KCL1 191057Z 18006KT 10/M01 A2997 RMK A01 T01021007  RH  047%=      5-min Rain = 0
KCL1 191058Z 18006KT 10/M01 A2997 RMK A01 T01021007  RH  047%=      5-min Rain = 0
KCL1 191059Z 18006KT 10/M01 A2997 RMK A01 T01011007  RH  047%=      5-min Rain = 0
KCL1 191100Z 17006KT 10/M01 A2997 RMK A01 T01011007  RH  047%=      5-min Rain = 0
KCL1 191101Z 17006KT 10/M01 A2997 RMK A01 T01011006  RH  047%=      5-min Rain = 0
KCL1 191102Z 17006KT 10/M01 A2997 RMK A01 T01011006  RH  048%=      5-min Rain = 0
KCL1 191103Z 17006KT 10/M01 A2997 RMK A01 T01001006  RH  048%=      5-min Rain = 0
KCL1 191104Z 17007KT 10/M01 A2997 RMK A01 T01001005  RH  048%=      5-min Rain = 0
KCL1 191105Z 17006KT 10/M01 A2997 RMK A01 T01001005  RH  048%=      5-min Rain = 0
KCL1 191106Z 17006KT 10/M01 A2997 RMK A01 T01001005  RH  048%=      5-min Rain = 0
KCL1 191107Z 16005KT 10/M00 A2997 RMK A01 T01011004  RH  048%=      5-min Rain = 0
KCL1 191108Z 16006KT 10/M00 A2997 RMK A01 T01011004  RH  048%=      5-min Rain = 0
KCL1 191109Z 16006KT 10/M01 A2996 RMK A01 T01011005  RH  048%=      5-min Rain = 0
KCL1 191110Z 16006KT 10/M01 A2996 RMK A01 T01011005  RH  048%=      5-min Rain = 0
KCL1 191111Z 16006KT 10/M01 A2996 RMK A01 T01011005  RH  048%=      5-min Rain = 0
KCL1 191112Z 17006KT 10/M01 A2996 RMK A01 T01021005  RH  047%=      5-min Rain = 0
KCL1 191113Z 16006KT 10/M01 A2996 RMK A01 T01021005  RH  047%=      5-min Rain = 0
KCL1 191114Z 16006KT 10/M01 A2996 RMK A01 T01021005  RH  047%=      5-min Rain = 0
KCL1 191115Z 16006KT 10/M01 A2996 RMK A01 T01021005  RH  047%=      5-min Rain = 0
KCL1 191116Z 16006KT 10/M01 A2996 RMK A01 T01021006  RH  047%=      5-min Rain = 0
KCL1 191117Z 16006KT 10/M01 A2996 RMK A01 T01021007  RH  047%=      5-min Rain = 0
KCL1 191118Z 16006KT 10/M01 A2996 RMK A01 T01031007  RH  046%=      5-min Rain = 0
KCL1 191119Z 16006KT 10/M01 A2996 RMK A01 T01041008  RH  046%=      5-min Rain = 0
KCL1 191120Z 16006KT 10/M01 A2996 RMK A01 T01041008  RH  046%=      5-min Rain = 0
KCL1 191121Z 16006KT 11/M01 A2996 RMK A01 T01051009  RH  045%=      5-min Rain = 0
KCL1 191122Z 16006KT 11/M01 A2996 RMK A01 T01061009  RH  045%=      5-min Rain = 0
KCL1 191123Z 16006KT 11/M01 A2996 RMK A01 T01071010  RH  044%=      5-min Rain = 0
KCL1 191124Z 16006KT 11/M01 A2996 RMK A01 T01071010  RH  044%=      5-min Rain = 0
KCL1 191125Z 16006KT 11/M01 A2996 RMK A01 T01061010  RH  044%=      5-min Rain = 0
KCL1 191126Z 16006KT 11/M01 A2996 RMK A01 T01051011  RH  044%=      5-min Rain = 0
KCL1 191127Z 16006KT 11/M01 A2996 RMK A01 T01051011  RH  045%=      5-min Rain = 0
KCL1 191128Z 17006KT 10/M01 A2996 RMK A01 T01041012  RH  044%=      5-min Rain = 0
KCL1 191129Z 17006KT 11/M01 A2996 RMK A01 T01051012  RH  044%=      5-min Rain = 0
KCL1 191130Z 17006KT 11/M01 A2996 RMK A01 T01051012  RH  044%=      5-min Rain = 0
KCL1 191131Z 17006KT 11/M01 A2996 RMK A01 T01051013  RH  044%=      5-min Rain = 0
KCL1 191132Z 18006KT 11/M01 A2996 RMK A01 T01061013  RH  044%=      5-min Rain = 0
KCL1 191133Z 18006KT 11/M01 A2996 RMK A01 T01061013  RH  043%=      5-min Rain = 0
KCL1 191134Z 18006KT 11/M01 A2996 RMK A01 T01061014  RH  043%=      5-min Rain = 0
KCL1 191135Z 18006KT 11/M01 A2996 RMK A01 T01061013  RH  043%=      5-min Rain = 0
KCL1 191136Z 17006KT 11/M01 A2996 RMK A01 T01061013  RH  043%=      5-min Rain = 0
KCL1 191137Z 17006KT 11/M01 A2996 RMK A01 T01061013  RH  043%=      5-min Rain = 0
KCL1 191138Z 17006KT 11/M01 A2996 RMK A01 T01061013  RH  043%=      5-min Rain = 0
KCL1 191139Z 17006KT 11/M01 A2996 RMK A01 T01061013  RH  043%=      5-min Rain = 0
KCL1 191140Z 17006KT 11/M01 A2996 RMK A01 T01061013  RH  044%=      5-min Rain = 0
KCL1 191141Z 17006KT 11/M01 A2996 RMK A01 T01071012  RH  044%=      5-min Rain = 0
KCL1 191142Z 17006KT 11/M01 A2996 RMK A01 T01071012  RH  044%=      5-min Rain = 0
KCL1 191143Z 17006KT 11/M01 A2996 RMK A01 T01071012  RH  043%=      5-min Rain = 0
KCL1 191144Z 17006KT 11/M01 A2996 RMK A01 T01071013  RH  043%=      5-min Rain = 0
KCL1 191145Z 16005KT 11/M01 A2996 RMK A01 T01071013  RH  043%=      5-min Rain = 0
KCL1 191146Z 16006KT 11/M01 A2996 RMK A01 T01081013  RH  043%=      5-min Rain = 0
KCL1 191147Z 16006KT 11/M01 A2996 RMK A01 T01091013  RH  043%=      5-min Rain = 0
KCL1 191148Z 16006KT 11/M01 A2996 RMK A01 T01091013  RH  043%=      5-min Rain = 0
KCL1 191149Z 16006KT 11/M01 A2996 RMK A01 T01101013  RH  042%=      5-min Rain = 0
KCL1 191150Z 16006KT 11/M01 A2995 RMK A01 T01091013  RH  042%=      5-min Rain = 0
KCL1 191151Z 15006KT 11/M01 A2995 RMK A01 T01081014  RH  043%=      5-min Rain = 0
KCL1 191152Z 15006KT 11/M01 A2995 RMK A01 T01081014  RH  043%=      5-min Rain = 0
KCL1 191153Z 15006KT 11/M02 A2995 RMK A01 T01071015  RH  043%=      5-min Rain = 0
KCL1 191154Z 15006KT 11/M02 A2995 RMK A01 T01061015  RH  043%=      5-min Rain = 0
KCL1 191155Z 16006KT 11/M02 A2995 RMK A01 T01051015  RH  043%=      5-min Rain = 0
KCL1 191156Z 16007KT 10/M02 A2995 RMK A01 T01041015  RH  043%=      5-min Rain = 0
KCL1 191157Z 16007KT 10/M02 A2995 RMK A01 T01041015  RH  043%=      5-min Rain = 0
KCL1 191158Z 17007KT 10/M02 A2995 RMK A01 T01031015  RH  044%=      5-min Rain = 0
KCL1 191159Z 17006KT 10/M02 A2995 RMK A01 T01031016  RH  044%=      5-min Rain = 0
KCL1 191200Z 17006KT 10/M02 A2995 RMK A01 T01041015  RH  043%=      5-min Rain = 0
KCL1 191201Z 17006KT 10/M02 A2995 RMK A01 T01031016  RH  043%=      5-min Rain = 0
KCL1 191202Z 17006KT 10/M02 A2995 RMK A01 T01041016  RH  043%=      5-min Rain = 0
KCL1 191203Z 17006KT 10/M02 A2995 RMK A01 T01031016  RH  043%=      5-min Rain = 0
KCL1 191204Z 17006KT 10/M02 A2995 RMK A01 T01031016  RH  043%=      5-min Rain = 0
KCL1 191205Z 17006KT 10/M02 A2995 RMK A01 T01021016  RH  043%=      5-min Rain = 0
KCL1 191206Z 17006KT 10/M02 A2995 RMK A01 T01021017  RH  043%=      5-min Rain = 0
KCL1 191207Z 17006KT 10/M02 A2995 RMK A01 T01031016  RH  043%=      5-min Rain = 0
KCL1 191208Z 17006KT 10/M02 A2995 RMK A01 T01031016  RH  043%=      5-min Rain = 0
KCL1 191209Z 17007KT 10/M02 A2995 RMK A01 T01031016  RH  043%=      5-min Rain = 0
KCL1 191210Z 17007KT 10/M02 A2995 RMK A01 T01041016  RH  043%=      5-min Rain = 0
KCL1 191211Z 17007KT 10/M02 A2995 RMK A01 T01031016  RH  043%=      5-min Rain = 0
KCL1 191212Z 17007KT 10/M02 A2995 RMK A01 T01031016  RH  043%=      5-min Rain = 0
KCL1 191213Z 17007KT 10/M02 A2995 RMK A01 T01031017  RH  043%=      5-min Rain = 0
KCL1 191214Z 17006KT 10/M02 A2995 RMK A01 T01041016  RH  043%=      5-min Rain = 0
KCL1 191215Z 17006KT 10/M02 A2995 RMK A01 T01031017  RH  043%=      5-min Rain = 0
KCL1 191216Z 18006KT 10/M02 A2995 RMK A01 T01031017  RH  043%=      5-min Rain = 0
KCL1 191217Z 18006KT 10/M02 A2995 RMK A01 T01031016  RH  043%=      5-min Rain = 0
KCL1 191218Z 18006KT 10/M02 A2995 RMK A01 T01031017  RH  043%=      5-min Rain = 0
KCL1 191219Z 18006KT 10/M02 A2995 RMK A01 T01041016  RH  043%=      5-min Rain = 0
KCL1 191220Z 19005KT 11/M02 A2995 RMK A01 T01051016  RH  043%=      5-min Rain = 0
KCL1 191221Z 19005KT 11/M02 A2995 RMK A01 T01061016  RH  043%=      5-min Rain = 0
KCL1 191222Z 18006KT 11/M02 A2995 RMK A01 T01061016  RH  042%=      5-min Rain = 0
KCL1 191223Z 19005KT 11/M02 A2995 RMK A01 T01071017  RH  042%=      5-min Rain = 0
KCL1 191224Z 19005KT 11/M02 A2995 RMK A01 T01071016  RH  042%=      5-min Rain = 0
KCL1 191225Z 19006KT 11/M02 A2995 RMK A01 T01071016  RH  042%=      5-min Rain = 0
KCL1 191226Z 18006KT 11/M02 A2995 RMK A01 T01081016  RH  042%=      5-min Rain = 0
KCL1 191227Z 18006KT 11/M02 A2995 RMK A01 T01071016  RH  042%=      5-min Rain = 0
KCL1 191228Z 18006KT 11/M02 A2995 RMK A01 T01061017  RH  042%=      5-min Rain = 0
KCL1 191229Z 18006KT 11/M02 A2995 RMK A01 T01051017  RH  042%=      5-min Rain = 0
KCL1 191230Z 18006KT 11/M02 A2995 RMK A01 T01051017  RH  043%=      5-min Rain = 0
KCL1 191231Z 18006KT 11/M02 A2995 RMK A01 T01051016  RH  043%=      5-min Rain = 0
KCL1 191232Z 18006KT 11/M02 A2995 RMK A01 T01051016  RH  043%=      5-min Rain = 0
KCL1 191233Z 18007KT 11/M02 A2995 RMK A01 T01051017  RH  043%=      5-min Rain = 0
KCL1 191234Z 18006KT 11/M02 A2995 RMK A01 T01051016  RH  043%=      5-min Rain = 0
KCL1 191235Z 19006KT 10/M02 A2995 RMK A01 T01041016  RH  043%=      5-min Rain = 0
KCL1 191236Z 19007KT 10/M02 A2995 RMK A01 T01041016  RH  043%=      5-min Rain = 0
KCL1 191237Z 19007KT 10/M02 A2995 RMK A01 T01041016  RH  043%=      5-min Rain = 0
KCL1 191238Z 20007KT 10/M02 A2995 RMK A01 T01031016  RH  043%=      5-min Rain = 0
KCL1 191239Z 20006KT 10/M02 A2995 RMK A01 T01031016  RH  044%=      5-min Rain = 0
KCL1 191240Z 20006KT 10/M02 A2995 RMK A01 T01011016  RH  044%=      5-min Rain = 0
KCL1 191241Z 21005KT 10/M02 A2995 RMK A01 T01001016  RH  044%=      5-min Rain = 0
KCL1 191242Z 21005KT 10/M02 A2995 RMK A01 T00981016  RH  045%=      5-min Rain = 0
KCL1 191243Z 21005KT 10/M02 A2995 RMK A01 T00981015  RH  045%=      5-min Rain = 0
KCL1 191244Z 21005KT 10/M02 A2995 RMK A01 T00971015  RH  045%=      5-min Rain = 0
KCL1 191245Z 20005KT 10/M02 A2995 RMK A01 T00971015  RH  046%=      5-min Rain = 0
KCL1 191246Z 21005KT 10/M01 A2995 RMK A01 T00961014  RH  046%=      5-min Rain = 0
KCL1 191247Z 21005KT 10/M01 A2995 RMK A01 T00961014  RH  046%=      5-min Rain = 0
KCL1 191248Z 20005KT 10/M01 A2995 RMK A01 T00961013  RH  046%=      5-min Rain = 0
KCL1 191249Z 20005KT 10/M01 A2995 RMK A01 T00961013  RH  047%=      5-min Rain = 0
KCL1 191250Z 20006KT 10/M01 A2995 RMK A01 T00951013  RH  047%=      5-min Rain = 0
KCL1 191251Z 19007KT 10/M01 A2995 RMK A01 T00951013  RH  047%=      5-min Rain = 0
KCL1 191252Z 19007KT 10/M01 A2995 RMK A01 T00961014  RH  046%=      5-min Rain = 0
KCL1 191253Z 19007KT 10/M01 A2995 RMK A01 T00981014  RH  046%=      5-min Rain = 0
KCL1 191254Z 19007KT 10/M01 A2995 RMK A01 T01001013  RH  045%=      5-min Rain = 0
KCL1 191255Z 20008KT 10/M01 A2995 RMK A01 T01001013  RH  045%=      5-min Rain = 0
KCL1 191256Z 20007KT 10/M01 A2995 RMK A01 T01001014  RH  045%=      5-min Rain = 0
KCL1 191257Z 20007KT 10/M01 A2995 RMK A01 T01001014  RH  045%=      5-min Rain = 0
KCL1 191258Z 20007KT 10/M01 A2995 RMK A01 T00991014  RH  045%=      5-min Rain = 0
KCL1 191259Z 20006KT 10/M01 A2995 RMK A01 T00981014  RH  046%=      5-min Rain = 0
KCL1 191300Z 20006KT 10/M01 A2995 RMK A01 T00981014  RH  046%=      5-min Rain = 0
KCL1 191301Z 20006KT 10/M01 A2995 RMK A01 T00971014  RH  046%=      5-min Rain = 0
KCL1 191302Z 20006KT 10/M01 A2995 RMK A01 T00971013  RH  046%=      5-min Rain = 0
KCL1 191303Z 20006KT 10/M01 A2995 RMK A01 T00971014  RH  046%=      5-min Rain = 0
KCL1 191304Z 20006KT 10/M01 A2995 RMK A01 T00971014  RH  046%=      5-min Rain = 0
KCL1 191305Z 20006KT 10/M01 A2995 RMK A01 T00971014  RH  046%=      5-min Rain = 0
KCL1 191306Z 20006KT 10/M01 A2995 RMK A01 T00981014  RH  046%=      5-min Rain = 0
KCL1 191307Z 20006KT 10/M01 A2995 RMK A01 T00981014  RH  045%=      5-min Rain = 0
KCL1 191308Z 20006KT 10/M01 A2995 RMK A01 T00991014  RH  045%=      5-min Rain = 0
KCL1 191309Z 20006KT 10/M01 A2995 RMK A01 T01001014  RH  045%=      5-min Rain = 0
KCL1 191310Z 20006KT 10/M01 A2995 RMK A01 T01001014  RH  045%=      5-min Rain = 0
KCL1 191311Z 20006KT 10/M01 A2995 RMK A01 T01001014  RH  045%=      5-min Rain = 0
KCL1 191312Z 19006KT 10/M01 A2995 RMK A01 T01001014  RH  045%=      5-min Rain = 0
KCL1 191313Z 19005KT 10/M01 A2995 RMK A01 T01011014  RH  045%=      5-min Rain = 0
KCL1 191314Z 19006KT 10/M01 A2995 RMK A01 T01011014  RH  045%=      5-min Rain = 0
KCL1 191315Z 19006KT 10/M01 A2995 RMK A01 T01011014  RH  045%=      5-min Rain = 0
KCL1 191316Z 19005KT 10/M01 A2995 RMK A01 T01021014  RH  045%=      5-min Rain = 0
KCL1 191317Z 19006KT 10/M01 A2996 RMK A01 T01021014  RH  044%=      5-min Rain = 0
KCL1 191318Z 18006KT 10/M01 A2996 RMK A01 T01021014  RH  044%=      5-min Rain = 0
KCL1 191319Z 18005KT 10/M01 A2996 RMK A01 T01021014  RH  045%=      5-min Rain = 0
KCL1 191320Z 18006KT 10/M01 A2996 RMK A01 T01031013  RH  044%=      5-min Rain = 0
KCL1 191321Z 19006KT 10/M01 A2996 RMK A01 T01031014  RH  044%=      5-min Rain = 0
KCL1 191322Z 19005KT 10/M01 A2996 RMK A01 T01031013  RH  044%=      5-min Rain = 0
KCL1 191323Z 19005KT 10/M01 A2996 RMK A01 T01021013  RH  044%=      5-min Rain = 0
KCL1 191324Z 19006KT 10/M01 A2996 RMK A01 T01031013  RH  044%=      5-min Rain = 0
KCL1 191325Z 19006KT 10/M01 A2996 RMK A01 T01021013  RH  045%=      5-min Rain = 0
KCL1 191326Z 19006KT 10/M01 A2996 RMK A01 T01011013  RH  045%=      5-min Rain = 0
KCL1 191327Z 19006KT 10/M01 A2996 RMK A01 T01011013  RH  045%=      5-min Rain = 0
KCL1 191328Z 19005KT 10/M01 A2996 RMK A01 T01011013  RH  045%=      5-min Rain = 0
KCL1 191329Z 19005KT 10/M01 A2996 RMK A01 T01001013  RH  045%=      5-min Rain = 0
KCL1 191330Z 19005KT 10/M01 A2996 RMK A01 T01001013  RH  046%=      5-min Rain = 0
KCL1 191331Z 19006KT 10/M01 A2996 RMK A01 T00991013  RH  046%=      5-min Rain = 0
KCL1 191332Z 19006KT 10/M01 A2996 RMK A01 T01001013  RH  046%=      5-min Rain = 0
KCL1 191333Z 19006KT 10/M01 A2996 RMK A01 T01001012  RH  046%=      5-min Rain = 0
KCL1 191334Z 19006KT 10/M01 A2996 RMK A01 T01001012  RH  046%=      5-min Rain = 0
KCL1 191335Z 19006KT 10/M01 A2996 RMK A01 T01001012  RH  046%=      5-min Rain = 0
KCL1 191336Z 19006KT 10/M01 A2996 RMK A01 T01011012  RH  045%=      5-min Rain = 0
KCL1 191337Z 19006KT 10/M01 A2996 RMK A01 T01011012  RH  045%=      5-min Rain = 0
KCL1 191338Z 19006KT 10/M01 A2996 RMK A01 T01021012  RH  045%=      5-min Rain = 0
KCL1 191339Z 19006KT 10/M01 A2996 RMK A01 T01021012  RH  045%=      5-min Rain = 0
KCL1 191340Z 19005KT 10/M01 A2996 RMK A01 T01031012  RH  045%=      5-min Rain = 0
KCL1 191341Z 20005KT 10/M01 A2996 RMK A01 T01031012  RH  045%=      5-min Rain = 0
KCL1 191342Z 19005KT 10/M01 A2996 RMK A01 T01021012  RH  045%=      5-min Rain = 0
KCL1 191343Z 20005KT 10/M01 A2996 RMK A01 T01021012  RH  045%=      5-min Rain = 0
KCL1 191344Z 20005KT 10/M01 A2996 RMK A01 T01021012  RH  045%=      5-min Rain = 0
KCL1 191345Z 20005KT 10/M01 A2996 RMK A01 T01021012  RH  045%=      5-min Rain = 0
KCL1 191346Z 20005KT 10/M01 A2996 RMK A01 T01021012  RH  045%=      5-min Rain = 0
KCL1 191347Z 20005KT 10/M01 A2996 RMK A01 T01011013  RH  045%=      5-min Rain = 0
KCL1 191348Z 21005KT 10/M01 A2996 RMK A01 T00991013  RH  046%=      5-min Rain = 0
KCL1 191349Z 21005KT 10/M01 A2996 RMK A01 T00981013  RH  046%=      5-min Rain = 0
KCL1 191350Z 21005KT 10/M01 A2996 RMK A01 T00981013  RH  046%=      5-min Rain = 0
KCL1 191351Z 21004KT 10/M01 A2996 RMK A01 T00981013  RH  046%=      5-min Rain = 0
KCL1 191352Z 21004KT 10/M01 A2996 RMK A01 T00981013  RH  046%=      5-min Rain = 0
KCL1 191353Z 21004KT 10/M01 A2996 RMK A01 T00991013  RH  046%=      5-min Rain = 0
KCL1 191354Z 21004KT 10/M01 A2996 RMK A01 T01001012  RH  046%=      5-min Rain = 0
KCL1 191355Z 21004KT 10/M01 A2996 RMK A01 T01011012  RH  046%=      5-min Rain = 0
KCL1 191356Z 21004KT 10/M01 A2996 RMK A01 T01011012  RH  045%=      5-min Rain = 0
KCL1 191357Z 21004KT 10/M01 A2996 RMK A01 T01021011  RH  045%=      5-min Rain = 0
KCL1 191358Z 21004KT 10/M01 A2996 RMK A01 T01031011  RH  045%=      5-min Rain = 0
KCL1 191359Z 21004KT 10/M01 A2996 RMK A01 T01031011  RH  045%=      5-min Rain = 0
KCL1 191400Z 21004KT 10/M01 A2996 RMK A01 T01031011  RH  045%=      5-min Rain = 0
KCL1 191401Z 22004KT 10/M01 A2996 RMK A01 T01031011  RH  045%=      5-min Rain = 0
KCL1 191402Z 22004KT 10/M01 A2996 RMK A01 T01031011  RH  045%=      5-min Rain = 0
KCL1 191403Z 22004KT 10/M01 A2996 RMK A01 T01031012  RH  045%=      5-min Rain = 0
KCL1 191404Z 21004KT 10/M01 A2996 RMK A01 T01041011  RH  045%=      5-min Rain = 0
KCL1 191405Z 21004KT 10/M01 A2996 RMK A01 T01031011  RH  045%=      5-min Rain = 0
KCL1 191406Z 20004KT 10/M01 A2996 RMK A01 T01041010  RH  045%=      5-min Rain = 0
KCL1 191407Z 19004KT 10/M01 A2996 RMK A01 T01041010  RH  045%=      5-min Rain = 0
KCL1 191408Z 19004KT 11/M01 A2996 RMK A01 T01061010  RH  045%=      5-min Rain = 0
KCL1 191409Z 19004KT 11/M01 A2996 RMK A01 T01071009  RH  044%=      5-min Rain = 0
KCL1 191410Z 19004KT 11/M01 A2996 RMK A01 T01081009  RH  044%=      5-min Rain = 0
KCL1 191411Z 19004KT 11/M01 A2996 RMK A01 T01081009  RH  044%=      5-min Rain = 0
KCL1 191412Z 19004KT 11/M01 A2996 RMK A01 T01091008  RH  044%=      5-min Rain = 0
KCL1 191413Z 19005KT 11/M01 A2996 RMK A01 T01101007  RH  044%=      5-min Rain = 0
KCL1 191414Z 18004KT 11/M01 A2996 RMK A01 T01101006  RH  044%=      5-min Rain = 0
KCL1 191415Z 18004KT 11/M01 A2996 RMK A01 T01111006  RH  044%=      5-min Rain = 0
KCL1 191416Z 18004KT 11/M01 A2996 RMK A01 T01111006  RH  044%=      5-min Rain = 0
KCL1 191417Z 18004KT 11/M01 A2996 RMK A01 T01121005  RH  044%=      5-min Rain = 0
KCL1 191418Z 19004KT 11/M01 A2996 RMK A01 T01121005  RH  044%=      5-min Rain = 0
KCL1 191419Z 18004KT 11/M00 A2996 RMK A01 T01121004  RH  045%=      5-min Rain = 0
KCL1 191420Z 18004KT 11/M00 A2996 RMK A01 T01131004  RH  045%=      5-min Rain = 0
KCL1 191421Z 18004KT 11/M00 A2996 RMK A01 T01131004  RH  044%=      5-min Rain = 0
KCL1 191422Z 17004KT 11/M00 A2996 RMK A01 T01141004  RH  044%=      5-min Rain = 0
KCL1 191423Z 17004KT 11/M00 A2996 RMK A01 T01141003  RH  044%=      5-min Rain = 0
KCL1 191424Z 17005KT 11/M00 A2996 RMK A01 T01141003  RH  044%=      5-min Rain = 0
KCL1 191425Z 17005KT 12/M00 A2996 RMK A01 T01151002  RH  044%=      5-min Rain = 0
KCL1 191426Z 17005KT 12/M00 A2996 RMK A01 T01151002  RH  044%=      5-min Rain = 0
KCL1 191427Z 17004KT 12/M00 A2996 RMK A01 T01151001  RH  045%=      5-min Rain = 0
KCL1 191428Z 17004KT 12/M00 A2996 RMK A01 T01151001  RH  045%=      5-min Rain = 0
KCL1 191429Z 16003KT 12/M00 A2996 RMK A01 T01161001  RH  045%=      5-min Rain = 0
KCL1 191430Z 16004KT 12/00 A2996 RMK A01 T01160000  RH  045%=      5-min Rain = 0
KCL1 191431Z 16004KT 12/00 A2996 RMK A01 T01170001  RH  045%=      5-min Rain = 0
KCL1 191432Z 16004KT 12/00 A2996 RMK A01 T01170000  RH  044%=      5-min Rain = 0
KCL1 191433Z 16004KT 12/00 A2996 RMK A01 T011800-0  RH  044%=      5-min Rain = 0
KCL1 191434Z 16003KT 12/00 A2996 RMK A01 T01190000  RH  044%=      5-min Rain = 0
KCL1 191435Z 15003KT 12/00 A2996 RMK A01 T01200002  RH  044%=      5-min Rain = 0
KCL1 191436Z 15003KT 12/00 A2996 RMK A01 T01210001  RH  044%=      5-min Rain = 0
KCL1 191437Z 14004KT 12/00 A2996 RMK A01 T01210002  RH  044%=      5-min Rain = 0
KCL1 191438Z 14005KT 12/00 A2996 RMK A01 T01220002  RH  044%=      5-min Rain = 0
KCL1 191439Z 14004KT 12/00 A2996 RMK A01 T01230002  RH  043%=      5-min Rain = 0
KCL1 191440Z 14005KT 12/00 A2996 RMK A01 T01240003  RH  043%=      5-min Rain = 0
KCL1 191441Z 14005KT 12/00 A2996 RMK A01 T01240002  RH  043%=      5-min Rain = 0
KCL1 191442Z 14005KT 13/00 A2996 RMK A01 T01250003  RH  043%=      5-min Rain = 0
KCL1 191443Z 14006KT 13/00 A2995 RMK A01 T01260003  RH  043%=      5-min Rain = 0
KCL1 191444Z 14005KT 13/00 A2995 RMK A01 T01260001  RH  042%=      5-min Rain = 0
KCL1 191445Z 14005KT 13/00 A2995 RMK A01 T01260003  RH  043%=      5-min Rain = 0
KCL1 191446Z 14006KT 13/00 A2995 RMK A01 T01270003  RH  043%=      5-min Rain = 0
KCL1 191447Z 14006KT 13/00 A2995 RMK A01 T01270003  RH  043%=      5-min Rain = 0
KCL1 191448Z 15006KT 13/00 A2995 RMK A01 T01280004  RH  043%=      5-min Rain = 0
KCL1 191449Z 14006KT 13/00 A2995 RMK A01 T01290003  RH  042%=      5-min Rain = 0
KCL1 191450Z 15006KT 13/00 A2995 RMK A01 T01290004  RH  042%=      5-min Rain = 0
KCL1 191451Z 15006KT 13/01 A2995 RMK A01 T01300005  RH  042%=      5-min Rain = 0
KCL1 191452Z 16006KT 13/00 A2995 RMK A01 T01310001  RH  041%=      5-min Rain = 0
KCL1 191453Z 15007KT 13/00 A2995 RMK A01 T01310003  RH  041%=      5-min Rain = 0
KCL1 191454Z 17008KT 13/00 A2995 RMK A01 T01320003  RH  041%=      5-min Rain = 0
KCL1 191455Z 16007KT 13/00 A2995 RMK A01 T01320002  RH  041%=      5-min Rain = 0
KCL1 191456Z 16006KT 13/00 A2995 RMK A01 T01320004  RH  041%=      5-min Rain = 0
KCL1 191457Z 17006KT 13/01 A2995 RMK A01 T01320005  RH  042%=      5-min Rain = 0
KCL1 191458Z 16006KT 13/00 A2995 RMK A01 T01320003  RH  041%=      5-min Rain = 0
KCL1 191459Z 16007KT 13/00 A2995 RMK A01 T01320003  RH  041%=      5-min Rain = 0
KCL1 191500Z 15007KT 13/00 A2995 RMK A01 T01330003  RH  041%=      5-min Rain = 0
KCL1 191501Z 16005KT 13/00 A2995 RMK A01 T01330004  RH  041%=      5-min Rain = 0
KCL1 191502Z 15006KT 13/00 A2995 RMK A01 T01330004  RH  041%=      5-min Rain = 0
KCL1 191503Z 16006KT 13/00 A2995 RMK A01 T01340003  RH  041%=      5-min Rain = 0
KCL1 191504Z 17007KT 13/00 A2995 RMK A01 T01340002  RH  040%=      5-min Rain = 0
KCL1 191505Z 17006KT 13/00 A2995 RMK A01 T01320002  RH  041%=      5-min Rain = 0
KCL1 191506Z 17006KT 13/00 A2995 RMK A01 T01320002  RH  041%=      5-min Rain = 0
KCL1 191507Z 18006KT 13/00 A2995 RMK A01 T01320003  RH  041%=      5-min Rain = 0
KCL1 191508Z 18006KT 13/00 A2995 RMK A01 T01330002  RH  041%=      5-min Rain = 0
KCL1 191509Z 18006KT 13/00 A2995 RMK A01 T01320002  RH  041%=      5-min Rain = 0
KCL1 191510Z 19004KT 13/00 A2996 RMK A01 T01310002  RH  041%=      5-min Rain = 0
KCL1 191511Z 17005KT 13/00 A2995 RMK A01 T01310002  RH  041%=      5-min Rain = 0
KCL1 191512Z 17006KT 13/00 A2995 RMK A01 T01300001  RH  041%=      5-min Rain = 0
KCL1 191513Z 17008KT 13/00 A2995 RMK A01 T01300001  RH  041%=      5-min Rain = 0
KCL1 191514Z 18007KT 13/00 A2995 RMK A01 T01300000  RH  041%=      5-min Rain = 0
KCL1 191515Z 18007KT 13/00 A2996 RMK A01 T01300001  RH  041%=      5-min Rain = 0
KCL1 191516Z 18006KT 13/00 A2996 RMK A01 T01300000  RH  041%=      5-min Rain = 0
KCL1 191517Z 19006KT 13/00 A2996 RMK A01 T01300001  RH  041%=      5-min Rain = 0
KCL1 191518Z 20005KT 13/00 A2996 RMK A01 T01310002  RH  041%=      5-min Rain = 0
KCL1 191519Z 18007KT 13/00 A2996 RMK A01 T01300001  RH  041%=      5-min Rain = 0
KCL1 191520Z 19006KT 13/00 A2995 RMK A01 T01290001  RH  041%=      5-min Rain = 0
KCL1 191521Z 18004KT 13/00 A2995 RMK A01 T01290000  RH  041%=      5-min Rain = 0
KCL1 191522Z 17006KT 13/00 A2995 RMK A01 T01290001  RH  042%=      5-min Rain = 0
KCL1 191523Z 18006KT 13/00 A2995 RMK A01 T01300002  RH  041%=      5-min Rain = 0
KCL1 191524Z 18004KT 13/00 A2996 RMK A01 T01310001  RH  041%=      5-min Rain = 0
KCL1 191525Z 17006KT 13/00 A2996 RMK A01 T01310002  RH  041%=      5-min Rain = 0
KCL1 191526Z 17008KT 13/00 A2995 RMK A01 T01300000  RH  041%=      5-min Rain = 0
KCL1 191527Z 17006KT 13/00 A2995 RMK A01 T013100-0  RH  041%=      5-min Rain = 0
KCL1 191528Z 17007KT 13/00 A2996 RMK A01 T01320001  RH  041%=      5-min Rain = 0
KCL1 191529Z 17007KT 13/00 A2996 RMK A01 T01320001  RH  040%=      5-min Rain = 0
KCL1 191530Z 17006KT 13/00 A2996 RMK A01 T01320000  RH  040%=      5-min Rain = 0
KCL1 191531Z 18007KT 13/00 A2996 RMK A01 T013200-0  RH  040%=      5-min Rain = 0
KCL1 191532Z 17007KT 13/00 A2996 RMK A01 T01320001  RH  040%=      5-min Rain = 0
KCL1 191533Z 17007KT 13/00 A2996 RMK A01 T01320000  RH  040%=      5-min Rain = 0
KCL1 191534Z 17008KT 13/00 A2996 RMK A01 T01330002  RH  041%=      5-min Rain = 0
KCL1 191535Z 17007KT 13/00 A2996 RMK A01 T01340000  RH  040%=      5-min Rain = 0
KCL1 191536Z 17007KT 13/00 A2996 RMK A01 T01340001  RH  040%=      5-min Rain = 0
KCL1 191537Z 17008KT 13/00 A2995 RMK A01 T01340000  RH  040%=      5-min Rain = 0
KCL1 191538Z 17006KT 13/00 A2995 RMK A01 T01330001  RH  040%=      5-min Rain = 0
KCL1 191539Z 16007KT 14/00 A2995 RMK A01 T01350003  RH  041%=      5-min Rain = 0
KCL1 191540Z 16006KT 14/00 A2995 RMK A01 T01370004  RH  040%=      5-min Rain = 0
KCL1 191541Z 16008KT 14/00 A2995 RMK A01 T01390004  RH  040%=      5-min Rain = 0
KCL1 191542Z 17007KT 14/00 A2995 RMK A01 T01390003  RH  039%=      5-min Rain = 0
KCL1 191543Z 15006KT 14/00 A2995 RMK A01 T01390004  RH  040%=      5-min Rain = 0
KCL1 191544Z 16007KT 14/00 A2995 RMK A01 T01390004  RH  040%=      5-min Rain = 0
KCL1 191545Z 16007KT 14/00 A2995 RMK A01 T01400004  RH  040%=      5-min Rain = 0
KCL1 191546Z 17006KT 14/00 A2996 RMK A01 T01390003  RH  039%=      5-min Rain = 0
KCL1 191547Z 16007KT 14/00 A2995 RMK A01 T01390004  RH  040%=      5-min Rain = 0
KCL1 191548Z 16008KT 14/00 A2995 RMK A01 T01400004  RH  039%=      5-min Rain = 0
KCL1 191549Z 16006KT 14/01 A2995 RMK A01 T01400005  RH  040%=      5-min Rain = 0
KCL1 191550Z 16006KT 14/01 A2996 RMK A01 T01420006  RH  040%=      5-min Rain = 0
KCL1 191551Z 16007KT 14/01 A2996 RMK A01 T01430006  RH  039%=      5-min Rain = 0
KCL1 191552Z 16007KT 14/01 A2996 RMK A01 T01430005  RH  039%=      5-min Rain = 0
KCL1 191553Z 16008KT 14/01 A2995 RMK A01 T01430005  RH  039%=      5-min Rain = 0
KCL1 191554Z 16008KT 14/01 A2995 RMK A01 T01440005  RH  039%=      5-min Rain = 0
KCL1 191555Z 16007KT 14/01 A2995 RMK A01 T01440006  RH  039%=      5-min Rain = 0
KCL1 191556Z 16009KT 15/01 A2995 RMK A01 T01450007  RH  039%=      5-min Rain = 0
KCL1 191557Z 16008KT 15/01 A2995 RMK A01 T01460007  RH  039%=      5-min Rain = 0
KCL1 191558Z 16007KT 15/01 A2995 RMK A01 T01460006  RH  038%=      5-min Rain = 0
KCL1 191559Z 17008KT 15/01 A2995 RMK A01 T01460006  RH  038%=      5-min Rain = 0
KCL1 191600Z 17007KT 15/01 A2995 RMK A01 T01460007  RH  039%=      5-min Rain = 0
KCL1 191601Z 17007KT 15/01 A2995 RMK A01 T01470007  RH  038%=      5-min Rain = 0
KCL1 191602Z 18008KT 15/01 A2995 RMK A01 T01480006  RH  038%=      5-min Rain = 0
KCL1 191603Z 18007KT 15/01 A2995 RMK A01 T01480007  RH  038%=      5-min Rain = 0
KCL1 191604Z 18007KT 15/01 A2995 RMK A01 T01480007  RH  038%=      5-min Rain = 0
KCL1 191605Z 19008KT 15/01 A2996 RMK A01 T01490007  RH  038%=      5-min Rain = 0
KCL1 191606Z 19007KT 15/01 A2996 RMK A01 T01480006  RH  038%=      5-min Rain = 0
KCL1 191607Z 18006KT 15/01 A2996 RMK A01 T01470006  RH  038%=      5-min Rain = 0
KCL1 191608Z 17007KT 15/01 A2996 RMK A01 T01470008  RH  039%=      5-min Rain = 0
KCL1 191609Z 18005KT 15/01 A2996 RMK A01 T01480008  RH  038%=      5-min Rain = 0
KCL1 191610Z 18005KT 15/01 A2996 RMK A01 T01500010  RH  038%=      5-min Rain = 0
KCL1 191611Z 19007KT 15/01 A2996 RMK A01 T01520008  RH  038%=      5-min Rain = 0
KCL1 191612Z 17008KT 15/01 A2995 RMK A01 T01500006  RH  038%=      5-min Rain = 0
KCL1 191613Z 17007KT 15/01 A2995 RMK A01 T01490007  RH  038%=      5-min Rain = 0
KCL1 191614Z 18006KT 15/01 A2995 RMK A01 T01490008  RH  038%=      5-min Rain = 0
KCL1 191615Z 18006KT 15/01 A2995 RMK A01 T01490008  RH  038%=      5-min Rain = 0
KCL1 191616Z 17006KT 15/01 A2995 RMK A01 T01500009  RH  038%=      5-min Rain = 0
KCL1 191617Z 18005KT 15/01 A2995 RMK A01 T01510009  RH  038%=      5-min Rain = 0
KCL1 191618Z 19005KT 15/01 A2995 RMK A01 T01530013  RH  039%=      5-min Rain = 0
KCL1 191619Z 18005KT 16/01 A2995 RMK A01 T01550011  RH  038%=      5-min Rain = 0
KCL1 191620Z 18006KT 15/01 A2995 RMK A01 T01540010  RH  038%=      5-min Rain = 0
KCL1 191621Z 18007KT 15/01 A2995 RMK A01 T01530011  RH  038%=      5-min Rain = 0
KCL1 191622Z 18006KT 15/01 A2995 RMK A01 T01520011  RH  038%=      5-min Rain = 0
KCL1 191623Z 17008KT 15/01 A2995 RMK A01 T01520010  RH  038%=      5-min Rain = 0
KCL1 191624Z 17008KT 15/01 A2995 RMK A01 T01520010  RH  038%=      5-min Rain = 0
KCL1 191625Z 18006KT 15/01 A2995 RMK A01 T01520011  RH  038%=      5-min Rain = 0
KCL1 191626Z 17005KT 15/01 A2995 RMK A01 T01540013  RH  038%=      5-min Rain = 0
KCL1 191627Z 17006KT 16/01 A2995 RMK A01 T01560013  RH  038%=      5-min Rain = 0
KCL1 191628Z 17007KT 16/01 A2995 RMK A01 T01570011  RH  037%=      5-min Rain = 0
KCL1 191629Z 18006KT 16/01 A2995 RMK A01 T01550012  RH  038%=      5-min Rain = 0
KCL1 191630Z 16006KT 16/01 A2995 RMK A01 T01570014  RH  038%=      5-min Rain = 0
KCL1 191631Z 16007KT 16/01 A2995 RMK A01 T01580014  RH  038%=      5-min Rain = 0
KCL1 191632Z 16007KT 16/01 A2995 RMK A01 T01590013  RH  037%=      5-min Rain = 0
KCL1 191633Z 15007KT 16/02 A2995 RMK A01 T01590015  RH  037%=      5-min Rain = 0
KCL1 191634Z 17007KT 16/01 A2995 RMK A01 T01600014  RH  037%=      5-min Rain = 0
KCL1 191635Z 17007KT 16/01 A2995 RMK A01 T01600013  RH  037%=      5-min Rain = 0
KCL1 191636Z 17008KT 16/01 A2995 RMK A01 T01580012  RH  037%=      5-min Rain = 0
KCL1 191637Z 16007KT 16/01 A2995 RMK A01 T01560012  RH  038%=      5-min Rain = 0
KCL1 191638Z 17008KT 16/01 A2995 RMK A01 T01560012  RH  037%=      5-min Rain = 0
KCL1 191639Z 17008KT 16/01 A2995 RMK A01 T01560012  RH  038%=      5-min Rain = 0
KCL1 191640Z 16006KT 16/01 A2995 RMK A01 T01560012  RH  038%=      5-min Rain = 0
KCL1 191641Z 16007KT 16/01 A2994 RMK A01 T01570014  RH  038%=      5-min Rain = 0
KCL1 191642Z 16007KT 16/02 A2994 RMK A01 T01580015  RH  038%=      5-min Rain = 0
KCL1 191643Z 17007KT 16/02 A2994 RMK A01 T01600015  RH  037%=      5-min Rain = 0
KCL1 191644Z 16006KT 16/02 A2994 RMK A01 T01610017  RH  038%=      5-min Rain = 0
KCL1 191645Z 16008KT 16/02 A2994 RMK A01 T01630016  RH  037%=      5-min Rain = 0
KCL1 191646Z 16008KT 16/02 A2994 RMK A01 T01630016  RH  037%=      5-min Rain = 0
KCL1 191647Z 17006KT 16/02 A2994 RMK A01 T01640016  RH  037%=      5-min Rain = 0
KCL1 191648Z 17006KT 16/02 A2994 RMK A01 T01630016  RH  037%=      5-min Rain = 0
KCL1 191649Z 17008KT 17/02 A2994 RMK A01 T01650018  RH  037%=      5-min Rain = 0
KCL1 191650Z 16007KT 17/02 A2994 RMK A01 T01660018  RH  037%=      5-min Rain = 0
KCL1 191651Z 17008KT 17/02 A2994 RMK A01 T01660016  RH  036%=      5-min Rain = 0
KCL1 191652Z 18007KT 17/02 A2994 RMK A01 T01660017  RH  037%=      5-min Rain = 0
KCL1 191653Z 18007KT 17/02 A2994 RMK A01 T01650017  RH  037%=      5-min Rain = 0
KCL1 191654Z 17008KT 17/02 A2994 RMK A01 T01660017  RH  037%=      5-min Rain = 0
KCL1 191655Z 17008KT 17/02 A2994 RMK A01 T01650016  RH  036%=      5-min Rain = 0
KCL1 191656Z 17007KT 16/02 A2994 RMK A01 T01640017  RH  037%=      5-min Rain = 0
KCL1 191657Z 17007KT 16/02 A2994 RMK A01 T01640016  RH  037%=      5-min Rain = 0
KCL1 191658Z 17007KT 16/02 A2994 RMK A01 T01640017  RH  037%=      5-min Rain = 0
KCL1 191659Z 16006KT 17/02 A2994 RMK A01 T01650018  RH  037%=      5-min Rain = 0
KCL1 191700Z 16008KT 17/02 A2994 RMK A01 T01660018  RH  037%=      5-min Rain = 0
KCL1 191701Z 16009KT 17/02 A2994 RMK A01 T01660018  RH  037%=      5-min Rain = 0
KCL1 191702Z 16008KT 16/02 A2994 RMK A01 T01640016  RH  037%=      5-min Rain = 0
KCL1 191703Z 17008KT 16/02 A2994 RMK A01 T01620015  RH  037%=      5-min Rain = 0
KCL1 191704Z 17007KT 16/02 A2994 RMK A01 T01610016  RH  037%=      5-min Rain = 0
KCL1 191705Z 17005KT 16/02 A2994 RMK A01 T01610018  RH  038%=      5-min Rain = 0
KCL1 191706Z 18007KT 16/02 A2994 RMK A01 T01640020  RH  038%=      5-min Rain = 0
KCL1 191707Z 18007KT 17/02 A2994 RMK A01 T01660018  RH  037%=      5-min Rain = 0
KCL1 191708Z 17009KT 17/02 A2994 RMK A01 T01660018  RH  037%=      5-min Rain = 0
KCL1 191709Z 17008KT 17/02 A2994 RMK A01 T01660017  RH  037%=      5-min Rain = 0
KCL1 191710Z 16009KT 17/02 A2993 RMK A01 T01660018  RH  037%=      5-min Rain = 0
KCL1 191711Z 16008KT 17/02 A2993 RMK A01 T01660018  RH  037%=      5-min Rain = 0
KCL1 191712Z 16008KT 17/02 A2993 RMK A01 T01670017  RH  036%=      5-min Rain = 0
KCL1 191713Z 16007KT 17/02 A2993 RMK A01 T01680017  RH  036%=      5-min Rain = 0
KCL1 191714Z 16009KT 17/02 A2993 RMK A01 T01700019  RH  036%=      5-min Rain = 0
KCL1 191715Z 16008KT 17/02 A2993 RMK A01 T01700018  RH  036%=      5-min Rain = 0
KCL1 191716Z 17008KT 17/02 A2993 RMK A01 T01710020  RH  036%=      5-min Rain = 0
KCL1 191717Z 16009KT 17/02 A2993 RMK A01 T01730020  RH  036%=      5-min Rain = 0
KCL1 191718Z 16008KT 18/02 A2993 RMK A01 T01750019  RH  035%=      5-min Rain = 0
KCL1 191719Z 16010KT 17/02 A2993 RMK A01 T01740017  RH  035%=      5-min Rain = 0
KCL1 191720Z 16010KT 17/02 A2993 RMK A01 T01740017  RH  035%=      5-min Rain = 0
KCL1 191721Z 16011KT 17/02 A2992 RMK A01 T01740017  RH  035%=      5-min Rain = 0
KCL1 191722Z 16011KT 17/02 A2992 RMK A01 T01740017  RH  035%=      5-min Rain = 0
KCL1 191723Z 16011KT 18/02 A2992 RMK A01 T01750018  RH  035%=      5-min Rain = 0
KCL1 191724Z 16009KT 18/02 A2992 RMK A01 T01760019  RH  035%=      5-min Rain = 0
KCL1 191725Z 17010KT 18/02 A2992 RMK A01 T01780019  RH  034%=      5-min Rain = 0
KCL1 191726Z 16010KT 18/02 A2992 RMK A01 T01780018  RH  034%=      5-min Rain = 0
KCL1 191727Z 16011KT 18/02 A2992 RMK A01 T01780018  RH  034%=      5-min Rain = 0
KCL1 191728Z 15010KT 18/02 A2992 RMK A01 T01790019  RH  034%=      5-min Rain = 0
KCL1 191729Z 17009KT 18/02 A2992 RMK A01 T01810022  RH  034%=      5-min Rain = 0
KCL1 191730Z 17010KT 18/02 A2992 RMK A01 T01830019  RH  033%=      5-min Rain = 0
KCL1 191731Z 17011KT 18/02 A2992 RMK A01 T01830019  RH  033%=      5-min Rain = 0
KCL1 191732Z 17010KT 18/02 A2992 RMK A01 T01820018  RH  033%=      5-min Rain = 0
KCL1 191733Z 17009KT 18/02 A2992 RMK A01 T01810018  RH  033%=      5-min Rain = 0
KCL1 191734Z 17011KT 18/02 A2992 RMK A01 T01830020  RH  034%=      5-min Rain = 0
KCL1 191735Z 17009KT 18/02 A2992 RMK A01 T01840018  RH  033%=      5-min Rain = 0
KCL1 191736Z 16010KT 18/02 A2992 RMK A01 T01840019  RH  033%=      5-min Rain = 0
KCL1 191737Z 16010KT 19/02 A2992 RMK A01 T01850020  RH  033%=      5-min Rain = 0
KCL1 191738Z 16010KT 19/02 A2992 RMK A01 T01850018  RH  033%=      5-min Rain = 0
KCL1 191739Z 17009KT 19/02 A2992 RMK A01 T01850019  RH  033%=      5-min Rain = 0
KCL1 191740Z 16011KT 19/02 A2991 RMK A01 T01860019  RH  033%=      5-min Rain = 0
KCL1 191741Z 16012KT 19/02 A2991 RMK A01 T01860018  RH  033%=      5-min Rain = 0
KCL1 191742Z 17010KT 19/02 A2991 RMK A01 T01860017  RH  032%=      5-min Rain = 0
KCL1 191743Z 15008KT 19/02 A2991 RMK A01 T01860019  RH  033%=      5-min Rain = 0
KCL1 191744Z 17009KT 19/02 A2991 RMK A01 T01870019  RH  032%=      5-min Rain = 0
KCL1 191745Z 16011KT 19/02 A2991 RMK A01 T01880020  RH  032%=      5-min Rain = 0
KCL1 191746Z 16010KT 19/02 A299 RMK A01 T01900021  RH  032%=      5-min Rain = 0
KCL1 191747Z 17010KT 19/02 A299 RMK A01 T01910020  RH  032%=      5-min Rain = 0
KCL1 191748Z 17011KT 19/02 A299 RMK A01 T01910019  RH  032%=      5-min Rain = 0
KCL1 191749Z 16011KT 19/02 A299 RMK A01 T01900018  RH  032%=      5-min Rain = 0
KCL1 191750Z 17012KT 19/02 A299 RMK A01 T01900019  RH  032%=      5-min Rain = 0
KCL1 191751Z 17009KT 19/02 A299 RMK A01 T01910020  RH  032%=      5-min Rain = 0
KCL1 191752Z 17012KT 19/02 A299 RMK A01 T01930019  RH  031%=      5-min Rain = 0
KCL1 191753Z 17009KT 19/02 A299 RMK A01 T01930020  RH  031%=      5-min Rain = 0
KCL1 191754Z 16008KT 19/02 A299 RMK A01 T01930021  RH  032%=      5-min Rain = 0
KCL1 191755Z 16010KT 19/02 A299 RMK A01 T01940021  RH  031%=      5-min Rain = 0
KCL1 191756Z 17008KT 20/02 A299 RMK A01 T01950019  RH  031%=      5-min Rain = 0
KCL1 191757Z 17007KT 19/02 A299 RMK A01 T01940021  RH  031%=      5-min Rain = 0
KCL1 191758Z 17006KT 20/02 A299 RMK A01 T01950020  RH  031%=      5-min Rain = 0
KCL1 191759Z 17008KT 20/02 A299 RMK A01 T01960021  RH  031%=      5-min Rain = 0
KCL1 191800Z 18010KT 20/02 A299 RMK A01 T01970020  RH  031%=      5-min Rain = 0
KCL1 191801Z 18008KT 20/02 A299 RMK A01 T01980018  RH  030%=      5-min Rain = 0
KCL1 191802Z 17008KT 20/02 A299 RMK A01 T01980022  RH  031%=      5-min Rain = 0
KCL1 191803Z 17007KT 20/02 A299 RMK A01 T02000021  RH  030%=      5-min Rain = 0
KCL1 191804Z 18008KT 20/02 A2989 RMK A01 T02010022  RH  030%=      5-min Rain = 0
KCL1 191805Z 16008KT 20/02 A2989 RMK A01 T02030021  RH  030%=      5-min Rain = 0
KCL1 191806Z 18007KT 20/02 A2989 RMK A01 T02040021  RH  030%=      5-min Rain = 0
KCL1 191807Z 18008KT 21/02 A2989 RMK A01 T02060022  RH  029%=      5-min Rain = 0
KCL1 191808Z 18009KT 21/02 A2989 RMK A01 T02070021  RH  029%=      5-min Rain = 0
KCL1 191809Z 16009KT 21/02 A2989 RMK A01 T02080021  RH  029%=      5-min Rain = 0
KCL1 191810Z 17008KT 21/02 A2989 RMK A01 T02090022  RH  029%=      5-min Rain = 0
KCL1 191811Z 17008G13KT 21/02 A2989 RMK A01 T02100022  RH  029%=      5-min Rain = 0
KCL1 191812Z 17010KT 21/02 A2989 RMK A01 T02100020  RH  028%=      5-min Rain = 0
KCL1 191813Z 17010KT 21/02 A2989 RMK A01 T02100019  RH  028%=      5-min Rain = 0
KCL1 191814Z 18010KT 21/02 A2989 RMK A01 T02100021  RH  029%=      5-min Rain = 0
KCL1 191815Z 17010KT 21/02 A2989 RMK A01 T02100019  RH  028%=      5-min Rain = 0
KCL1 191816Z 17012KT 21/02 A2989 RMK A01 T02090019  RH  028%=      5-min Rain = 0
KCL1 191817Z 17011KT 21/02 A2989 RMK A01 T02090016  RH  028%=      5-min Rain = 0
KCL1 191818Z 18010KT 21/02 A2989 RMK A01 T02070018  RH  028%=      5-min Rain = 0
KCL1 191819Z 17011KT 21/02 A2988 RMK A01 T02070018  RH  028%=      5-min Rain = 0
KCL1 191820Z 17008KT 21/02 A2988 RMK A01 T02080018  RH  028%=      5-min Rain = 0
KCL1 191821Z 18007KT 21/02 A2988 RMK A01 T02090022  RH  029%=      5-min Rain = 0
KCL1 191822Z 17008KT 21/02 A2988 RMK A01 T02120022  RH  028%=      5-min Rain = 0
KCL1 191823Z 16011KT 21/02 A2988 RMK A01 T02130020  RH  028%=      5-min Rain = 0
KCL1 191824Z 16011KT 21/02 A2988 RMK A01 T02130021  RH  028%=      5-min Rain = 0
KCL1 191825Z 18007KT 21/02 A2988 RMK A01 T02130021  RH  028%=      5-min Rain = 0
KCL1 191826Z 17008KT 21/02 A2988 RMK A01 T02130019  RH  028%=      5-min Rain = 0
KCL1 191827Z 17009KT 21/02 A2988 RMK A01 T02120020  RH  028%=      5-min Rain = 0
KCL1 191828Z 16011KT 21/02 A2988 RMK A01 T02120020  RH  028%=      5-min Rain = 0
KCL1 191829Z 17010KT 21/02 A2988 RMK A01 T02130018  RH  028%=      5-min Rain = 0
KCL1 191830Z 17011KT 21/02 A2988 RMK A01 T02120017  RH  027%=      5-min Rain = 0
KCL1 191831Z 17008KT 21/02 A2988 RMK A01 T02110017  RH  028%=      5-min Rain = 0
KCL1 191832Z 19008KT 21/02 A2988 RMK A01 T02110019  RH  028%=      5-min Rain = 0
KCL1 191833Z 17011KT 21/02 A2988 RMK A01 T02120019  RH  028%=      5-min Rain = 0
KCL1 191834Z 18010KT 21/02 A2988 RMK A01 T02120017  RH  027%=      5-min Rain = 0
KCL1 191835Z 18011KT 21/02 A2987 RMK A01 T02110015  RH  027%=      5-min Rain = 0
KCL1 191836Z 16010KT 21/02 A2987 RMK A01 T02110017  RH  028%=      5-min Rain = 0
KCL1 191837Z 18011KT 21/02 A2987 RMK A01 T02110018  RH  028%=      5-min Rain = 0
KCL1 191838Z 17011KT 21/02 A2987 RMK A01 T02130016  RH  027%=      5-min Rain = 0
KCL1 191839Z 17010KT 21/01 A2987 RMK A01 T02130013  RH  027%=      5-min Rain = 0
KCL1 191840Z 16010KT 21/01 A2987 RMK A01 T02110014  RH  027%=      5-min Rain = 0
KCL1 191841Z 17011KT 21/02 A2987 RMK A01 T02110016  RH  027%=      5-min Rain = 0
KCL1 191842Z 16008KT 21/02 A2987 RMK A01 T02110017  RH  028%=      5-min Rain = 0
KCL1 191843Z 16007KT 21/02 A2987 RMK A01 T02130018  RH  027%=      5-min Rain = 0
KCL1 191844Z 17010KT 22/02 A2987 RMK A01 T02150018  RH  027%=      5-min Rain = 0
KCL1 191845Z 16010KT 22/02 A2987 RMK A01 T02160017  RH  027%=      5-min Rain = 0
KCL1 191846Z 17009KT 22/01 A2987 RMK A01 T02170013  RH  026%=      5-min Rain = 0
KCL1 191847Z 17011KT 22/01 A2987 RMK A01 T02170014  RH  026%=      5-min Rain = 0
KCL1 191848Z 18007KT 22/01 A2986 RMK A01 T02170012  RH  026%=      5-min Rain = 0
KCL1 191849Z 17009KT 22/01 A2986 RMK A01 T02180013  RH  026%=      5-min Rain = 0
KCL1 191850Z 17010KT 22/01 A2986 RMK A01 T02180012  RH  026%=      5-min Rain = 0
KCL1 191851Z 16010KT 22/01 A2986 RMK A01 T02190013  RH  026%=      5-min Rain = 0
KCL1 191852Z 18011G16KT 22/01 A2986 RMK A01 T02210014  RH  025%=      5-min Rain = 0
KCL1 191853Z 18009KT 22/01 A2986 RMK A01 T02220011  RH  025%=      5-min Rain = 0
KCL1 191854Z 17007KT 22/01 A2986 RMK A01 T02220013  RH  025%=      5-min Rain = 0
KCL1 191855Z 17011KT 22/01 A2986 RMK A01 T02240014  RH  025%=      5-min Rain = 0
KCL1 191856Z 17010KT 23/01 A2986 RMK A01 T02260014  RH  025%=      5-min Rain = 0
KCL1 191857Z 18010KT 23/01 A2986 RMK A01 T02270013  RH  024%=      5-min Rain = 0
KCL1 191858Z 18010KT 23/02 A2986 RMK A01 T02270015  RH  025%=      5-min Rain = 0
KCL1 191859Z 17011KT 23/01 A2986 RMK A01 T02270012  RH  024%=      5-min Rain = 0
KCL1 191900Z 17009KT 23/01 A2986 RMK A01 T02260011  RH  024%=      5-min Rain = 0
KCL1 191901Z 16012G20KT 23/01 A2985 RMK A01 T02260011  RH  024%=      5-min Rain = 0
KCL1 191902Z 18014KT 23/01 A2985 RMK A01 T02270013  RH  024%=      5-min Rain = 0
KCL1 191903Z 17011KT 23/02 A2986 RMK A01 T02290015  RH  024%=      5-min Rain = 0
KCL1 191904Z 18012KT 23/01 A2986 RMK A01 T02310014  RH  024%=      5-min Rain = 0
KCL1 191905Z 17011KT 23/01 A2986 RMK A01 T02310014  RH  024%=      5-min Rain = 0
KCL1 191906Z 17012KT 23/02 A2986 RMK A01 T02300015  RH  024%=      5-min Rain = 0
KCL1 191907Z 16014KT 23/01 A2985 RMK A01 T02300013  RH  024%=      5-min Rain = 0
KCL1 191908Z 15012KT 23/01 A2985 RMK A01 T02290012  RH  024%=      5-min Rain = 0
KCL1 191909Z 16013KT 23/01 A2985 RMK A01 T02280013  RH  024%=      5-min Rain = 0
KCL1 191910Z 17012KT 23/01 A2985 RMK A01 T02290013  RH  024%=      5-min Rain = 0
KCL1 191911Z 17011KT 23/01 A2985 RMK A01 T02280011  RH  024%=      5-min Rain = 0
KCL1 191912Z 17012KT 23/01 A2985 RMK A01 T02270010  RH  024%=      5-min Rain = 0
KCL1 191913Z 16009G14KT 23/01 A2985 RMK A01 T02280011  RH  024%=      5-min Rain = 0
KCL1 191914Z 15009KT 23/01 A2985 RMK A01 T02300011  RH  024%=      5-min Rain = 0
KCL1 191915Z 16012G17KT 23/01 A2985 RMK A01 T02300013  RH  024%=      5-min Rain = 0
KCL1 191916Z 17012KT 23/01 A2985 RMK A01 T02310013  RH  024%=      5-min Rain = 0
KCL1 191917Z 17010KT 23/01 A2985 RMK A01 T02320010  RH  023%=      5-min Rain = 0
KCL1 191918Z 17012KT 23/01 A2985 RMK A01 T02310012  RH  024%=      5-min Rain = 0
KCL1 191919Z 16012KT 23/01 A2985 RMK A01 T02310010  RH  023%=      5-min Rain = 0
KCL1 191920Z 17012KT 23/01 A2985 RMK A01 T02300009  RH  023%=      5-min Rain = 0
KCL1 191921Z 17010KT 23/01 A2985 RMK A01 T02290010  RH  024%=      5-min Rain = 0
KCL1 191922Z 17008KT 23/01 A2985 RMK A01 T02300012  RH  024%=      5-min Rain = 0
KCL1 191923Z 18009KT 23/01 A2985 RMK A01 T02320013  RH  024%=      5-min Rain = 0
KCL1 191924Z 17010KT 23/01 A2985 RMK A01 T02320011  RH  023%=      5-min Rain = 0
KCL1 191925Z 16009KT 23/01 A2985 RMK A01 T02320011  RH  023%=      5-min Rain = 0
KCL1 191926Z 16012KT 23/01 A2984 RMK A01 T02320011  RH  023%=      5-min Rain = 0
KCL1 191927Z 16009KT 23/01 A2985 RMK A01 T02320012  RH  023%=      5-min Rain = 0
KCL1 191928Z 15011KT 23/01 A2984 RMK A01 T02340012  RH  023%=      5-min Rain = 0
KCL1 191929Z 16010KT 23/01 A2984 RMK A01 T02340009  RH  023%=      5-min Rain = 0
KCL1 191930Z 17009KT 23/01 A2984 RMK A01 T02330014  RH  024%=      5-min Rain = 0
KCL1 191931Z 17011KT 24/01 A2984 RMK A01 T02360012  RH  023%=      5-min Rain = 0
KCL1 191932Z 16010KT 24/01 A2984 RMK A01 T02360013  RH  023%=      5-min Rain = 0
KCL1 191933Z 16012KT 24/01 A2984 RMK A01 T02360014  RH  023%=      5-min Rain = 0
KCL1 191934Z 17011KT 24/01 A2984 RMK A01 T02360013  RH  023%=      5-min Rain = 0
KCL1 191935Z 19012KT 24/01 A2984 RMK A01 T02360012  RH  023%=      5-min Rain = 0
KCL1 191936Z 19012KT 24/01 A2984 RMK A01 T02380008  RH  022%=      5-min Rain = 0
KCL1 191937Z 18010KT 24/01 A2984 RMK A01 T02380009  RH  022%=      5-min Rain = 0
KCL1 191938Z 17011G16KT 24/01 A2984 RMK A01 T02410013  RH  022%=      5-min Rain = 0
KCL1 191939Z 18014G21KT 24/01 A2984 RMK A01 T02410009  RH  022%=      5-min Rain = 0
KCL1 191940Z 19016G22KT 24/M00 A2984 RMK A01 T02411002  RH  020%=      5-min Rain = 0
KCL1 191941Z 19013G19KT 24/M00 A2984 RMK A01 T02421003  RH  020%=      5-min Rain = 0
KCL1 191942Z 21010KT 24/M00 A2984 RMK A01 T02421002  RH  020%=      5-min Rain = 0
KCL1 191943Z 21009G14KT 24/M00 A2984 RMK A01 T02441002  RH  020%=      5-min Rain = 0
KCL1 191944Z 22009KT 25/M00 A2984 RMK A01 T02451001  RH  020%=      5-min Rain = 0
KCL1 191945Z 23012G17KT 25/M01 A2983 RMK A01 T02451006  RH  019%=      5-min Rain = 0
KCL1 191946Z 20014KT 24/M01 A2983 RMK A01 T02441006  RH  019%=      5-min Rain = 0
KCL1 191947Z 20014KT 24/M00 A2983 RMK A01 T02431004  RH  020%=      5-min Rain = 0
KCL1 191948Z 19013G20KT 24/M00 A2983 RMK A01 T02421004  RH  020%=      5-min Rain = 0
KCL1 191949Z 18016KT 24/M00 A2983 RMK A01 T02431003  RH  020%=      5-min Rain = 0
KCL1 191950Z 18014G19KT 24/M00 A2983 RMK A01 T02441002  RH  020%=      5-min Rain = 0
KCL1 191951Z 18015G20KT 25/M00 A2983 RMK A01 T02451003  RH  020%=      5-min Rain = 0
KCL1 191952Z 20010G17KT 25/M00 A2983 RMK A01 T02451003  RH  019%=      5-min Rain = 0
KCL1 191953Z 20012G17KT 25/M00 A2983 RMK A01 T02471002  RH  019%=      5-min Rain = 0
KCL1 191954Z 19014G19KT 25/M01 A2983 RMK A01 T02461006  RH  019%=      5-min Rain = 0
KCL1 191955Z 21016G23KT 24/M01 A2983 RMK A01 T02441007  RH  019%=      5-min Rain = 0
KCL1 191956Z 21014KT 24/M01 A2983 RMK A01 T02421008  RH  019%=      5-min Rain = 0
KCL1 191957Z 19017G24KT 24/M01 A2983 RMK A01 T02421008  RH  019%=      5-min Rain = 0
KCL1 191958Z 21012G17KT 24/M01 A2983 RMK A01 T02411007  RH  019%=      5-min Rain = 0
KCL1 191959Z 22012G17KT 24/M01 A2983 RMK A01 T02421007  RH  019%=      5-min Rain = 0
KCL1 192000Z 20011G18KT 24/M01 A2983 RMK A01 T02421008  RH  019%=      5-min Rain = 0
KCL1 192001Z 19016G22KT 24/M01 A2983 RMK A01 T02421006  RH  019%=      5-min Rain = 0
KCL1 192002Z 19016G21KT 24/M01 A2982 RMK A01 T02431009  RH  019%=      5-min Rain = 0
KCL1 192003Z 19015KT 24/M01 A2982 RMK A01 T02421009  RH  019%=      5-min Rain = 0
KCL1 192004Z 18018KT 24/M01 A2982 RMK A01 T02411007  RH  019%=      5-min Rain = 0
KCL1 192005Z 19017G24KT 24/M01 A2982 RMK A01 T02421008  RH  019%=      5-min Rain = 0
KCL1 192006Z 19016KT 24/M01 A2982 RMK A01 T02421009  RH  019%=      5-min Rain = 0
KCL1 192007Z 18016KT 24/M01 A2982 RMK A01 T02421008  RH  019%=      5-min Rain = 0
KCL1 192008Z 19015KT 24/M01 A2982 RMK A01 T02431007  RH  019%=      5-min Rain = 0
KCL1 192009Z 20014G21KT 24/M01 A2982 RMK A01 T02441009  RH  019%=      5-min Rain = 0
KCL1 192010Z 20019G24KT 24/M01 A2982 RMK A01 T02421012  RH  019%=      5-min Rain = 0
KCL1 192011Z 20016G21KT 24/M01 A2982 RMK A01 T02411011  RH  019%=      5-min Rain = 0
KCL1 192012Z 20014KT 24/M01 A2982 RMK A01 T02411010  RH  019%=      5-min Rain = 0
KCL1 192013Z 20011KT 24/M01 A2982 RMK A01 T02411010  RH  019%=      5-min Rain = 0
KCL1 192014Z 19013G20KT 24/M01 A2982 RMK A01 T02421007  RH  019%=      5-min Rain = 0
KCL1 192015Z 18015KT 24/M01 A2982 RMK A01 T02431008  RH  019%=      5-min Rain = 0
KCL1 192016Z 19014KT 24/M01 A2982 RMK A01 T02431007  RH  019%=      5-min Rain = 0
KCL1 192017Z 18012KT 24/M01 A2982 RMK A01 T02431007  RH  019%=      5-min Rain = 0
KCL1 192018Z 20013G20KT 24/M01 A2982 RMK A01 T02441005  RH  019%=      5-min Rain = 0
KCL1 192019Z 20013G20KT 25/M01 A2982 RMK A01 T02451006  RH  019%=      5-min Rain = 0
KCL1 192020Z 20014KT 25/M01 A2981 RMK A01 T02461009  RH  019%=      5-min Rain = 0
KCL1 192021Z 21016KT 24/M01 A2981 RMK A01 T02441011  RH  018%=      5-min Rain = 0
KCL1 192022Z 20014KT 24/M01 A2981 RMK A01 T02431011  RH  019%=      5-min Rain = 0
KCL1 192023Z 20014G19KT 24/M01 A2981 RMK A01 T02421011  RH  019%=      5-min Rain = 0
KCL1 192024Z 19017G23KT 24/M01 A2981 RMK A01 T02421010  RH  019%=      5-min Rain = 0
KCL1 192025Z 18017KT 24/M01 A2981 RMK A01 T02431011  RH  019%=      5-min Rain = 0
KCL1 192026Z 18018KT 24/M01 A2981 RMK A01 T02431010  RH  019%=      5-min Rain = 0
KCL1 192027Z 18016KT 24/M01 A2981 RMK A01 T02431010  RH  019%=      5-min Rain = 0
KCL1 192028Z 20016KT 24/M01 A2981 RMK A01 T02441010  RH  019%=      5-min Rain = 0
KCL1 192029Z 18017G22KT 25/M01 A2981 RMK A01 T02451011  RH  018%=      5-min Rain = 0
KCL1 192030Z 18018KT 25/M01 A2981 RMK A01 T02451008  RH  019%=      5-min Rain = 0
KCL1 192031Z 19013G20KT 25/M01 A2981 RMK A01 T02451010  RH  018%=      5-min Rain = 0
KCL1 192032Z 19012KT 25/M01 A2981 RMK A01 T02461008  RH  019%=      5-min Rain = 0
KCL1 192033Z 19018KT 25/M01 A2981 RMK A01 T02461010  RH  018%=      5-min Rain = 0
KCL1 192034Z 19017KT 25/M01 A2981 RMK A01 T02451010  RH  018%=      5-min Rain = 0
KCL1 192035Z 20014KT 24/M01 A2981 RMK A01 T02441011  RH  019%=      5-min Rain = 0
KCL1 192036Z 20013KT 24/M01 A2981 RMK A01 T02431011  RH  019%=      5-min Rain = 0
KCL1 192037Z 19010G15KT 24/M01 A2981 RMK A01 T02431009  RH  019%=      5-min Rain = 0
KCL1 192038Z 21010G18KT 24/M01 A2981 RMK A01 T02441007  RH  019%=      5-min Rain = 0
KCL1 192039Z 22014G20KT 25/M01 A298 RMK A01 T02461009  RH  019%=      5-min Rain = 0
KCL1 192040Z 18014KT 25/M01 A2981 RMK A01 T02451009  RH  019%=      5-min Rain = 0
KCL1 192041Z 19018KT 25/M01 A298 RMK A01 T02461008  RH  019%=      5-min Rain = 0
KCL1 192042Z 20013G18KT 25/M01 A2981 RMK A01 T02461009  RH  018%=      5-min Rain = 0
KCL1 192043Z 20016G21KT 25/M01 A298 RMK A01 T02461010  RH  018%=      5-min Rain = 0
KCL1 192044Z 20017G25KT 25/M01 A298 RMK A01 T02451010  RH  018%=      5-min Rain = 0
KCL1 192045Z 20017KT 24/M01 A298 RMK A01 T02441011  RH  018%=      5-min Rain = 0
KCL1 192046Z 19018G23KT 24/M01 A298 RMK A01 T02441011  RH  019%=      5-min Rain = 0
KCL1 192047Z 18019KT 24/M01 A298 RMK A01 T02431011  RH  018%=      5-min Rain = 0
KCL1 192048Z 18015G21KT 24/M01 A298 RMK A01 T02431010  RH  019%=      5-min Rain = 0
KCL1 192049Z 19016KT 24/M01 A298 RMK A01 T02441009  RH  019%=      5-min Rain = 0
KCL1 192050Z 18016KT 25/M01 A298 RMK A01 T02451009  RH  019%=      5-min Rain = 0
KCL1 192051Z 18017KT 25/M01 A298 RMK A01 T02451009  RH  019%=      5-min Rain = 0
KCL1 192052Z 19015KT 25/M01 A298 RMK A01 T02451009  RH  019%=      5-min Rain = 0
KCL1 192053Z 19015G21KT 24/M01 A298 RMK A01 T02441010  RH  019%=      5-min Rain = 0
KCL1 192054Z 20015KT 24/M01 A298 RMK A01 T02431011  RH  019%=      5-min Rain = 0
KCL1 192055Z 19018G24KT 24/M01 A298 RMK A01 T02421012  RH  019%=      5-min Rain = 0
KCL1 192056Z 20015KT 24/M01 A298 RMK A01 T02421012  RH  019%=      5-min Rain = 0
KCL1 192057Z 18016G22KT 24/M01 A298 RMK A01 T02421011  RH  019%=      5-min Rain = 0
KCL1 192058Z 19010KT 24/M01 A298 RMK A01 T02431008  RH  019%=      5-min Rain = 0
KCL1 192059Z 20011G18KT 25/M01 A298 RMK A01 T02451009  RH  019%=      5-min Rain = 0
KCL1 192100Z 19013KT 25/M01 A298 RMK A01 T02451010  RH  019%=      5-min Rain = 0
KCL1 192101Z 21012G17KT 25/M01 A298 RMK A01 T02451009  RH  019%=      5-min Rain = 0
KCL1 192102Z 20012KT 25/M01 A298 RMK A01 T02451010  RH  019%=      5-min Rain = 0
KCL1 192103Z 19012KT 25/M01 A298 RMK A01 T02451009  RH  019%=      5-min Rain = 0
KCL1 192104Z 20017G24KT 25/M01 A298 RMK A01 T02451009  RH  019%=      5-min Rain = 0
KCL1 192105Z 19014G19KT 24/M01 A298 RMK A01 T02441010  RH  019%=      5-min Rain = 0
KCL1 192106Z 19017KT 24/M01 A298 RMK A01 T02441009  RH  019%=      5-min Rain = 0
KCL1 192107Z 20016G21KT 24/M01 A298 RMK A01 T02431010  RH  019%=      5-min Rain = 0
KCL1 192108Z 18016KT 24/M01 A298 RMK A01 T02431010  RH  019%=      5-min Rain = 0
KCL1 192109Z 18016KT 24/M01 A298 RMK A01 T02431009  RH  019%=      5-min Rain = 0
KCL1 192110Z 19017G24KT 24/M01 A298 RMK A01 T02431009  RH  019%=      5-min Rain = 0
KCL1 192111Z 19021G26KT 24/M01 A298 RMK A01 T02441010  RH  019%=      5-min Rain = 0
KCL1 192112Z 19016G21KT 24/M01 A298 RMK A01 T02431011  RH  019%=      5-min Rain = 0
KCL1 192113Z 20011KT 24/M01 A298 RMK A01 T02421010  RH  019%=      5-min Rain = 0
KCL1 192114Z 19011G17KT 24/M01 A298 RMK A01 T02431009  RH  019%=      5-min Rain = 0
KCL1 192115Z 21008KT 24/M01 A298 RMK A01 T02441008  RH  019%=      5-min Rain = 0
KCL1 192116Z 21008KT 25/M01 A298 RMK A01 T02451008  RH  019%=      5-min Rain = 0
KCL1 192117Z 20011KT 25/M01 A298 RMK A01 T02451008  RH  019%=      5-min Rain = 0
KCL1 192118Z 20009KT 25/M01 A298 RMK A01 T02451008  RH  019%=      5-min Rain = 0
KCL1 192119Z 19011G17KT 24/M01 A298 RMK A01 T02441007  RH  019%=      5-min Rain = 0
KCL1 192120Z 18013KT 25/M01 A298 RMK A01 T02451007  RH  019%=      5-min Rain = 0
KCL1 192121Z 18013KT 25/M01 A298 RMK A01 T02451006  RH  019%=      5-min Rain = 0
KCL1 192122Z 19015G22KT 25/M01 A298 RMK A01 T02451007  RH  019%=      5-min Rain = 0
KCL1 192123Z 18017KT 25/M01 A298 RMK A01 T02451007  RH  019%=      5-min Rain = 0
KCL1 192124Z 18016KT 24/M01 A298 RMK A01 T02431008  RH  019%=      5-min Rain = 0
KCL1 192125Z 18015KT 24/M01 A298 RMK A01 T02421008  RH  019%=      5-min Rain = 0
KCL1 192126Z 19013KT 24/M01 A298 RMK A01 T02421008  RH  019%=      5-min Rain = 0
KCL1 192127Z 19015KT 24/M01 A298 RMK A01 T02421008  RH  019%=      5-min Rain = 0
KCL1 192128Z 19014KT 24/M01 A298 RMK A01 T02421009  RH  019%=      5-min Rain = 0
KCL1 192129Z 20013G18KT 24/M01 A298 RMK A01 T02421009  RH  019%=      5-min Rain = 0
KCL1 192130Z 19012KT 24/M01 A298 RMK A01 T02421009  RH  019%=      5-min Rain = 0
KCL1 192131Z 20017G22KT 24/M01 A298 RMK A01 T02421008  RH  019%=      5-min Rain = 0
KCL1 192132Z 19017KT 24/M01 A298 RMK A01 T02421010  RH  019%=      5-min Rain = 0
KCL1 192133Z 19015KT 24/M01 A298 RMK A01 T02421009  RH  019%=      5-min Rain = 0
KCL1 192134Z 19013G18KT 24/M01 A298 RMK A01 T02411009  RH  019%=      5-min Rain = 0
KCL1 192135Z 19014G19KT 24/M01 A298 RMK A01 T02411009  RH  019%=      5-min Rain = 0
KCL1 192136Z 18012KT 24/M01 A298 RMK A01 T02421008  RH  019%=      5-min Rain = 0
KCL1 192137Z 20012KT 24/M01 A298 RMK A01 T02421008  RH  019%=      5-min Rain = 0
KCL1 192138Z 19011G16KT 24/M01 A298 RMK A01 T02421009  RH  019%=      5-min Rain = 0
KCL1 192139Z 18014KT 24/M01 A298 RMK A01 T02421008  RH  019%=      5-min Rain = 0
KCL1 192140Z 19014KT 24/M01 A298 RMK A01 T02421009  RH  019%=      5-min Rain = 0
KCL1 192141Z 18014KT 24/M01 A298 RMK A01 T02411008  RH  019%=      5-min Rain = 0
KCL1 192142Z 18015KT 24/M01 A298 RMK A01 T02421007  RH  019%=      5-min Rain = 0
KCL1 192143Z 19014G22KT 24/M01 A298 RMK A01 T02431006  RH  019%=      5-min Rain = 0
KCL1 192144Z 18017KT 24/M01 A298 RMK A01 T02431009  RH  019%=      5-min Rain = 0
KCL1 192145Z 19018G23KT 24/M01 A298 RMK A01 T02421009  RH  019%=      5-min Rain = 0
KCL1 192146Z 19015KT 24/M01 A298 RMK A01 T02421009  RH  019%=      5-min Rain = 0
KCL1 192147Z 20014G19KT 24/M01 A2979 RMK A01 T02421009  RH  019%=      5-min Rain = 0
KCL1 192148Z 20012KT 24/M01 A298 RMK A01 T02411010  RH  019%=      5-min Rain = 0
KCL1 192149Z 19015G20KT 24/M01 A298 RMK A01 T02411010  RH  019%=      5-min Rain = 0
KCL1 192150Z 18015G20KT 24/M01 A298 RMK A01 T02411010  RH  019%=      5-min Rain = 0
KCL1 192151Z 18016KT 24/M01 A298 RMK A01 T02411011  RH  019%=      5-min Rain = 0
KCL1 192152Z 18017KT 24/M01 A2979 RMK A01 T02411011  RH  019%=      5-min Rain = 0
KCL1 192153Z 19015KT 24/M01 A2979 RMK A01 T02401012  RH  019%=      5-min Rain = 0
KCL1 192154Z 20016G23KT 24/M01 A2979 RMK A01 T02401012  RH  019%=      5-min Rain = 0
KCL1 192155Z 19017KT 24/M01 A2979 RMK A01 T02401012  RH  019%=      5-min Rain = 0
KCL1 192156Z 20017KT 24/M01 A2979 RMK A01 T02401013  RH  019%=      5-min Rain = 0
KCL1 192157Z 21012KT 24/M01 A2979 RMK A01 T02391013  RH  019%=      5-min Rain = 0
KCL1 192158Z 22014G19KT 24/M01 A2979 RMK A01 T02391012  RH  019%=      5-min Rain = 0
KCL1 192159Z 20014KT 24/M01 A2979 RMK A01 T02391012  RH  019%=      5-min Rain = 0
KCL1 192200Z 21011KT 24/M01 A2979 RMK A01 T02391012  RH  019%=      5-min Rain = 0
KCL1 192201Z 19012KT 24/M01 A2979 RMK A01 T02391012  RH  019%=      5-min Rain = 0
KCL1 192202Z 19017KT 24/M01 A2979 RMK A01 T02391012  RH  019%=      5-min Rain = 0
KCL1 192203Z 20016KT 24/M01 A2979 RMK A01 T02381013  RH  019%=      5-min Rain = 0
KCL1 192204Z 19016KT 24/M01 A2979 RMK A01 T02381013  RH  019%=      5-min Rain = 0
KCL1 192205Z 20014G19KT 24/M01 A2979 RMK A01 T02381013  RH  019%=      5-min Rain = 0
KCL1 192206Z 19014KT 24/M01 A2979 RMK A01 T02371013  RH  019%=      5-min Rain = 0
KCL1 192207Z 19012KT 24/M01 A2979 RMK A01 T02371013  RH  019%=      5-min Rain = 0
KCL1 192208Z 20017KT 24/M01 A2979 RMK A01 T02371011  RH  019%=      5-min Rain = 0
KCL1 192209Z 18015KT 24/M01 A2979 RMK A01 T02371011  RH  019%=      5-min Rain = 0
KCL1 192210Z 20015G20KT 24/M01 A2979 RMK A01 T02371011  RH  019%=      5-min Rain = 0
KCL1 192211Z 18013KT 24/M01 A2979 RMK A01 T02361011  RH  019%=      5-min Rain = 0
KCL1 192212Z 20013G20KT 24/M01 A2979 RMK A01 T02351010  RH  020%=      5-min Rain = 0
KCL1 192213Z 19013KT 23/M01 A2979 RMK A01 T02341011  RH  020%=      5-min Rain = 0
KCL1 192214Z 19010G16KT 24/M01 A2979 RMK A01 T02351010  RH  020%=      5-min Rain = 0
KCL1 192215Z 19010KT 24/M01 A298 RMK A01 T02351009  RH  020%=      5-min Rain = 0
KCL1 192216Z 20014G19KT 24/M01 A2979 RMK A01 T02361009  RH  020%=      5-min Rain = 0
KCL1 192217Z 20012KT 24/M01 A2979 RMK A01 T02361010  RH  019%=      5-min Rain = 0
KCL1 192218Z 20012KT 24/M01 A298 RMK A01 T02351010  RH  020%=      5-min Rain = 0
KCL1 192219Z 19015KT 23/M01 A298 RMK A01 T02341010  RH  020%=      5-min Rain = 0
KCL1 192220Z 19012G17KT 23/M01 A298 RMK A01 T02331011  RH  020%=      5-min Rain = 0
KCL1 192221Z 19014KT 23/M01 A298 RMK A01 T02331010  RH  020%=      5-min Rain = 0
KCL1 192222Z 19011G17KT 23/M01 A298 RMK A01 T02331011  RH  020%=      5-min Rain = 0
KCL1 192223Z 19013KT 23/M01 A298 RMK A01 T02331010  RH  020%=      5-min Rain = 0
KCL1 192224Z 20014G19KT 23/M01 A2979 RMK A01 T02331011  RH  020%=      5-min Rain = 0
KCL1 192225Z 19010KT 23/M01 A298 RMK A01 T02331011  RH  020%=      5-min Rain = 0
KCL1 192226Z 19013KT 23/M01 A2979 RMK A01 T02331011  RH  020%=      5-min Rain = 0
KCL1 192227Z 19011KT 23/M01 A298 RMK A01 T02331011  RH  020%=      5-min Rain = 0
KCL1 192228Z 18009KT 23/M01 A298 RMK A01 T02321010  RH  020%=      5-min Rain = 0
KCL1 192229Z 20010KT 23/M01 A298 RMK A01 T02321010  RH  020%=      5-min Rain = 0
KCL1 192230Z 18013KT 23/M01 A298 RMK A01 T02321011  RH  020%=      5-min Rain = 0
KCL1 192231Z 19010KT 23/M01 A298 RMK A01 T02311011  RH  020%=      5-min Rain = 0
KCL1 192232Z 19009KT 23/M01 A298 RMK A01 T02311010  RH  020%=      5-min Rain = 0
KCL1 192233Z 19008KT 23/M01 A298 RMK A01 T02301010  RH  020%=      5-min Rain = 0
KCL1 192234Z 19010KT 23/M01 A298 RMK A01 T02311009  RH  020%=      5-min Rain = 0
KCL1 192235Z 19012KT 23/M01 A2979 RMK A01 T02311010  RH  020%=      5-min Rain = 0
KCL1 192236Z 19011KT 23/M01 A2979 RMK A01 T02311010  RH  020%=      5-min Rain = 0
KCL1 192237Z 19010G15KT 23/M01 A2979 RMK A01 T02311010  RH  020%=      5-min Rain = 0
KCL1 192238Z 19009KT 23/M01 A298 RMK A01 T02311008  RH  020%=      5-min Rain = 0
KCL1 192239Z 19011KT 23/M01 A298 RMK A01 T02311009  RH  020%=      5-min Rain = 0
KCL1 192240Z 18013G18KT 23/M01 A2979 RMK A01 T02301009  RH  020%=      5-min Rain = 0
KCL1 192241Z 18014KT 23/M01 A2979 RMK A01 T02311009  RH  020%=      5-min Rain = 0
KCL1 192242Z 19012KT 23/M01 A2979 RMK A01 T02301009  RH  020%=      5-min Rain = 0
KCL1 192243Z 19009KT 23/M01 A298 RMK A01 T02301009  RH  020%=      5-min Rain = 0
KCL1 192244Z 18012G17KT 23/M01 A2979 RMK A01 T02301008  RH  020%=      5-min Rain = 0
KCL1 192245Z 18012KT 23/M01 A2979 RMK A01 T02301008  RH  021%=      5-min Rain = 0
KCL1 192246Z 18014G19KT 23/M01 A2979 RMK A01 T02291008  RH  021%=      5-min Rain = 0
KCL1 192247Z 18013KT 23/M01 A2979 RMK A01 T02291008  RH  021%=      5-min Rain = 0
KCL1 192248Z 19008G14KT 23/M01 A2979 RMK A01 T02291007  RH  021%=      5-min Rain = 0
KCL1 192249Z 18010KT 23/M01 A2979 RMK A01 T02281007  RH  021%=      5-min Rain = 0
KCL1 192250Z 19011KT 23/M01 A2979 RMK A01 T02291007  RH  021%=      5-min Rain = 0
KCL1 192251Z 19010KT 23/M01 A2979 RMK A01 T02291008  RH  021%=      5-min Rain = 0
KCL1 192252Z 18011G16KT 23/M01 A2979 RMK A01 T02291008  RH  021%=      5-min Rain = 0
KCL1 192253Z 18010KT 23/M01 A2979 RMK A01 T02291008  RH  021%=      5-min Rain = 0
KCL1 192254Z 18010G15KT 23/M01 A2979 RMK A01 T02281007  RH  021%=      5-min Rain = 0
KCL1 192255Z 18013KT 23/M01 A2979 RMK A01 T02271008  RH  021%=      5-min Rain = 0
KCL1 192256Z 18014KT 23/M01 A2979 RMK A01 T02271009  RH  021%=      5-min Rain = 0
KCL1 192257Z 18011KT 23/M01 A2979 RMK A01 T02271009  RH  021%=      5-min Rain = 0
KCL1 192258Z 18012KT 23/M01 A2979 RMK A01 T02261009  RH  021%=      5-min Rain = 0
KCL1 192259Z 18012KT 23/M01 A2979 RMK A01 T02251010  RH  021%=      5-min Rain = 0
KCL1 192300Z 18011KT 23/M01 A2979 RMK A01 T02251010  RH  021%=      5-min Rain = 0
KCL1 192301Z 18012KT 23/M01 A2979 RMK A01 T02251009  RH  021%=      5-min Rain = 0
KCL1 192302Z 18012KT 23/M01 A2979 RMK A01 T02251009  RH  021%=      5-min Rain = 0
KCL1 192303Z 18011KT 22/M01 A2979 RMK A01 T02241010  RH  021%=      5-min Rain = 0
KCL1 192304Z 18011KT 22/M01 A2979 RMK A01 T02231010  RH  021%=      5-min Rain = 0
KCL1 192305Z 18010KT 22/M01 A2979 RMK A01 T02221010  RH  021%=      5-min Rain = 0
KCL1 192306Z 17009KT 22/M01 A2979 RMK A01 T02221009  RH  021%=      5-min Rain = 0
KCL1 192307Z 17009KT 22/M01 A2979 RMK A01 T02211009  RH  021%=      5-min Rain = 0
KCL1 192308Z 19011KT 22/M01 A2979 RMK A01 T02211009  RH  022%=      5-min Rain = 0
KCL1 192309Z 18011G16KT 22/M01 A2979 RMK A01 T02201010  RH  022%=      5-min Rain = 0
KCL1 192310Z 18009KT 22/M01 A2979 RMK A01 T02201010  RH  022%=      5-min Rain = 0
KCL1 192311Z 18010KT 22/M01 A2979 RMK A01 T02201010  RH  022%=      5-min Rain = 0
KCL1 192312Z 18011KT 22/M01 A2979 RMK A01 T02201009  RH  022%=      5-min Rain = 0
KCL1 192313Z 17011KT 22/M01 A2979 RMK A01 T02201010  RH  022%=      5-min Rain = 0
KCL1 192314Z 18012KT 22/M01 A2979 RMK A01 T02201010  RH  021%=      5-min Rain = 0
KCL1 192315Z 18010KT 22/M01 A2979 RMK A01 T02211010  RH  022%=      5-min Rain = 0
KCL1 192316Z 18010KT 22/M01 A2979 RMK A01 T02201009  RH  022%=      5-min Rain = 0
KCL1 192317Z 18011KT 22/M01 A2979 RMK A01 T02191010  RH  022%=      5-min Rain = 0
KCL1 192318Z 18009KT 22/M01 A2979 RMK A01 T02181010  RH  022%=      5-min Rain = 0
KCL1 192319Z 17010KT 22/M01 A2979 RMK A01 T02181010  RH  022%=      5-min Rain = 0
KCL1 192320Z 17011KT 22/M01 A2979 RMK A01 T02171009  RH  022%=      5-min Rain = 0
KCL1 192321Z 18010KT 22/M01 A2979 RMK A01 T02161010  RH  022%=      5-min Rain = 0
KCL1 192322Z 17008KT 22/M01 A2979 RMK A01 T02151010  RH  022%=      5-min Rain = 0
KCL1 192323Z 17013G18KT 21/M01 A2979 RMK A01 T02141010  RH  022%=      5-min Rain = 0
KCL1 192324Z 17010KT 21/M01 A2979 RMK A01 T02131010  RH  022%=      5-min Rain = 0
KCL1 192325Z 17012KT 21/M01 A2979 RMK A01 T02131010  RH  022%=      5-min Rain = 0
KCL1 192326Z 17011KT 21/M01 A2979 RMK A01 T02131010  RH  022%=      5-min Rain = 0
KCL1 192327Z 17013KT 21/M01 A2979 RMK A01 T02131010  RH  022%=      5-min Rain = 0
KCL1 192328Z 17011KT 21/M01 A2979 RMK A01 T02141009  RH  022%=      5-min Rain = 0
KCL1 192329Z 17012KT 21/M01 A2978 RMK A01 T02141010  RH  022%=      5-min Rain = 0
KCL1 192330Z 17012KT 21/M01 A2979 RMK A01 T02141009  RH  022%=      5-min Rain = 0
KCL1 192331Z 17013KT 21/M01 A2978 RMK A01 T02131010  RH  023%=      5-min Rain = 0
KCL1 192332Z 17011KT 21/M01 A2979 RMK A01 T02131010  RH  023%=      5-min Rain = 0
KCL1 192333Z 17013KT 21/M01 A2979 RMK A01 T02121010  RH  023%=      5-min Rain = 0
KCL1 192334Z 17013KT 21/M01 A2979 RMK A01 T02121010  RH  023%=      5-min Rain = 0
KCL1 192335Z 17011KT 21/M01 A2979 RMK A01 T02131010  RH  023%=      5-min Rain = 0
KCL1 192336Z 17010KT 21/M01 A2979 RMK A01 T02131009  RH  023%=      5-min Rain = 0
KCL1 192337Z 17010KT 21/M01 A2979 RMK A01 T02111009  RH  023%=      5-min Rain = 0
KCL1 192338Z 17011KT 21/M01 A2979 RMK A01 T02101009  RH  023%=      5-min Rain = 0
KCL1 192339Z 17010KT 21/M01 A2979 RMK A01 T02101010  RH  023%=      5-min Rain = 0
KCL1 192340Z 17010KT 21/M01 A2979 RMK A01 T02091009  RH  023%=      5-min Rain = 0
KCL1 192341Z 18012KT 21/M01 A2979 RMK A01 T02081010  RH  023%=      5-min Rain = 0
KCL1 192342Z 17012KT 21/M01 A2979 RMK A01 T02081010  RH  023%=      5-min Rain = 0
KCL1 192343Z 17012KT 21/M01 A2979 RMK A01 T02091010  RH  023%=      5-min Rain = 0
KCL1 192344Z 17010KT 21/M01 A2979 RMK A01 T02091010  RH  023%=      5-min Rain = 0
KCL1 192345Z 17011KT 21/M01 A2979 RMK A01 T02081010  RH  023%=      5-min Rain = 0
KCL1 192346Z 17010KT 21/M01 A2979 RMK A01 T02071010  RH  023%=      5-min Rain = 0
KCL1 192347Z 18011KT 21/M01 A2979 RMK A01 T02061010  RH  023%=      5-min Rain = 0
KCL1 192348Z 17011KT 21/M01 A2979 RMK A01 T02061010  RH  024%=      5-min Rain = 0
KCL1 192349Z 17013KT 21/M01 A2979 RMK A01 T02061010  RH  023%=      5-min Rain = 0
KCL1 192350Z 17014KT 21/M01 A2979 RMK A01 T02061010  RH  023%=      5-min Rain = 0
KCL1 192351Z 17011KT 21/M01 A2979 RMK A01 T02061010  RH  023%=      5-min Rain = 0
KCL1 192352Z 17012KT 21/M01 A2979 RMK A01 T02061010  RH  023%=      5-min Rain = 0
KCL1 192353Z 17012KT 21/M01 A2979 RMK A01 T02061010  RH  023%=      5-min Rain = 0
KCL1 192354Z 17011KT 21/M01 A2979 RMK A01 T02061010  RH  023%=      5-min Rain = 0
KCL1 192355Z 17011KT 21/M01 A2979 RMK A01 T02061010  RH  023%=      5-min Rain = 0
KCL1 192356Z 17013KT 21/M01 A2979 RMK A01 T02051010  RH  024%=      5-min Rain = 0
KCL1 192357Z 18012KT 21/M01 A2979 RMK A01 T02051010  RH  024%=      5-min Rain = 0
KCL1 192358Z 17011KT 21/M01 A2979 RMK A01 T02061010  RH  023%=      5-min Rain = 0
KCL1 192359Z 17012KT 21/M01 A2979 RMK A01 T02061010  RH  023%=      5-min Rain = 0
KCL1 200000Z 17014KT 21/M01 A298 RMK A01 T02051010  RH  024%=      5-min Rain = 0
KCL1 200001Z 17013KT 21/M01 A298 RMK A01 T02051010  RH  024%=      5-min Rain = 0
KCL1 200002Z 17010KT 21/M01 A298 RMK A01 T02051010  RH  024%=      5-min Rain = 0
KCL1 200003Z 16013KT 20/M01 A298 RMK A01 T02041010  RH  024%=      5-min Rain = 0
KCL1 200004Z 17012KT 20/M01 A298 RMK A01 T02031010  RH  024%=      5-min Rain = 0
KCL1 200005Z 17013KT 20/M01 A298 RMK A01 T02031010  RH  024%=      5-min Rain = 0
KCL1 200006Z 16013KT 20/M01 A298 RMK A01 T02031010  RH  024%=      5-min Rain = 0
KCL1 200007Z 17011KT 20/M01 A298 RMK A01 T02031010  RH  024%=      5-min Rain = 0
KCL1 200008Z 17012KT 20/M01 A298 RMK A01 T02021010  RH  024%=      5-min Rain = 0
KCL1 200009Z 17011KT 20/M01 A298 RMK A01 T02021010  RH  024%=      5-min Rain = 0
KCL1 200010Z 17011KT 20/M01 A298 RMK A01 T02011010  RH  024%=      5-min Rain = 0
KCL1 200011Z 16010KT 20/M01 A298 RMK A01 T02011010  RH  024%=      5-min Rain = 0
KCL1 200012Z 17011KT 20/M01 A298 RMK A01 T02011010  RH  024%=      5-min Rain = 0
KCL1 200013Z 17011KT 20/M01 A298 RMK A01 T02001010  RH  024%=      5-min Rain = 0
KCL1 200014Z 16010KT 20/M01 A298 RMK A01 T02001010  RH  024%=      5-min Rain = 0
KCL1 200015Z 17011KT 20/M01 A298 RMK A01 T01991010  RH  024%=      5-min Rain = 0
KCL1 200016Z 16010KT 20/M01 A298 RMK A01 T01991009  RH  025%=      5-min Rain = 0
KCL1 200017Z 16010KT 20/M01 A298 RMK A01 T01991010  RH  025%=      5-min Rain = 0
KCL1 200018Z 17008KT 20/M01 A298 RMK A01 T01981009  RH  025%=      5-min Rain = 0
KCL1 200019Z 16009KT 20/M01 A298 RMK A01 T01961010  RH  025%=      5-min Rain = 0
KCL1 200020Z 16008KT 20/M01 A298 RMK A01 T01961009  RH  025%=      5-min Rain = 0
KCL1 200021Z 16009KT 20/M01 A298 RMK A01 T01951009  RH  025%=      5-min Rain = 0
KCL1 200022Z 17009KT 20/M01 A298 RMK A01 T01951009  RH  025%=      5-min Rain = 0
KCL1 200023Z 16010KT 19/M01 A298 RMK A01 T01941009  RH  025%=      5-min Rain = 0
KCL1 200024Z 16010KT 19/M01 A298 RMK A01 T01941009  RH  025%=      5-min Rain = 0
KCL1 200025Z 16010KT 19/M01 A298 RMK A01 T01941009  RH  026%=      5-min Rain = 0
KCL1 200026Z 16011KT 19/M01 A298 RMK A01 T01941008  RH  025%=      5-min Rain = 0
KCL1 200027Z 16012KT 20/M01 A298 RMK A01 T01951008  RH  026%=      5-min Rain = 0
KCL1 200028Z 16012KT 20/M01 A298 RMK A01 T01961008  RH  025%=      5-min Rain = 0
KCL1 200029Z 16011KT 20/M01 A298 RMK A01 T01961007  RH  025%=      5-min Rain = 0
KCL1 200030Z 17011KT 20/M01 A298 RMK A01 T01971007  RH  025%=      5-min Rain = 0
KCL1 200031Z 16011KT 20/M01 A298 RMK A01 T01961007  RH  025%=      5-min Rain = 0
KCL1 200032Z 17012KT 20/M01 A298 RMK A01 T01971006  RH  026%=      5-min Rain = 0
KCL1 200033Z 16013KT 20/M01 A298 RMK A01 T01961006  RH  026%=      5-min Rain = 0
KCL1 200034Z 16013KT 20/M01 A298 RMK A01 T01961006  RH  026%=      5-min Rain = 0
KCL1 200035Z 16015KT 20/M01 A298 RMK A01 T01971005  RH  026%=      5-min Rain = 0
KCL1 200036Z 16013KT 20/M01 A298 RMK A01 T01981005  RH  026%=      5-min Rain = 0
KCL1 200037Z 17013KT 20/M01 A298 RMK A01 T01981005  RH  026%=      5-min Rain = 0
KCL1 200038Z 17013KT 20/M01 A298 RMK A01 T01981005  RH  026%=      5-min Rain = 0
KCL1 200039Z 17010KT 20/M00 A298 RMK A01 T01981004  RH  026%=      5-min Rain = 0
KCL1 200040Z 17009KT 20/M00 A298 RMK A01 T01971004  RH  026%=      5-min Rain = 0
KCL1 200041Z 16010KT 20/M01 A298 RMK A01 T01951005  RH  026%=      5-min Rain = 0
KCL1 200042Z 17009KT 19/M00 A298 RMK A01 T01941004  RH  026%=      5-min Rain = 0
KCL1 200043Z 17010G15KT 19/M00 A298 RMK A01 T01921004  RH  027%=      5-min Rain = 0
KCL1 200044Z 16012KT 19/M00 A298 RMK A01 T01921004  RH  027%=      5-min Rain = 0
KCL1 200045Z 17012KT 19/M00 A298 RMK A01 T01921003  RH  027%=      5-min Rain = 0
KCL1 200046Z 17012KT 19/M00 A298 RMK A01 T01931003  RH  027%=      5-min Rain = 0
KCL1 200047Z 17011KT 19/M00 A298 RMK A01 T01931003  RH  027%=      5-min Rain = 0
KCL1 200048Z 17012KT 19/M00 A298 RMK A01 T01931002  RH  027%=      5-min Rain = 0
KCL1 200049Z 16014KT 19/M00 A298 RMK A01 T01921002  RH  027%=      5-min Rain = 0
KCL1 200050Z 16012KT 19/M00 A298 RMK A01 T01921002  RH  027%=      5-min Rain = 0
KCL1 200051Z 17010KT 19/M00 A298 RMK A01 T01921002  RH  027%=      5-min Rain = 0
KCL1 200052Z 17012G17KT 19/M00 A2981 RMK A01 T01911002  RH  027%=      5-min Rain = 0
KCL1 200053Z 17014KT 19/M00 A298 RMK A01 T01911001  RH  027%=      5-min Rain = 0
KCL1 200054Z 17012KT 19/M00 A298 RMK A01 T01911001  RH  027%=      5-min Rain = 0
KCL1 200055Z 17011KT 19/M00 A298 RMK A01 T01921001  RH  027%=      5-min Rain = 0
KCL1 200056Z 17010KT 19/00 A298 RMK A01 T019200-0  RH  027%=      5-min Rain = 0
KCL1 200057Z 16009KT 19/M00 A298 RMK A01 T01901001  RH  028%=      5-min Rain = 0
KCL1 200058Z 17012KT 19/M00 A298 RMK A01 T01891001  RH  028%=      5-min Rain = 0
KCL1 200059Z 16010KT 19/00 A298 RMK A01 T018800-0  RH  028%=      5-min Rain = 0
KCL1 200100Z 16011KT 19/00 A298 RMK A01 T018700-0  RH  028%=      5-min Rain = 0
KCL1 200101Z 17010KT 19/00 A298 RMK A01 T018700-0  RH  028%=      5-min Rain = 0
KCL1 200102Z 17010KT 19/00 A298 RMK A01 T01870000  RH  028%=      5-min Rain = 0
KCL1 200103Z 17011KT 19/00 A298 RMK A01 T01860000  RH  028%=      5-min Rain = 0
KCL1 200104Z 17009KT 19/00 A298 RMK A01 T01870000  RH  029%=      5-min Rain = 0
KCL1 200105Z 16008KT 19/00 A298 RMK A01 T01870001  RH  029%=      5-min Rain = 0
KCL1 200106Z 17009KT 19/00 A298 RMK A01 T01860001  RH  029%=      5-min Rain = 0
KCL1 200107Z 17009KT 18/00 A298 RMK A01 T01840001  RH  029%=      5-min Rain = 0
KCL1 200108Z 16011KT 18/00 A298 RMK A01 T01840001  RH  029%=      5-min Rain = 0
KCL1 200109Z 17011KT 19/00 A298 RMK A01 T01850002  RH  029%=      5-min Rain = 0
KCL1 200110Z 16010KT 19/00 A298 RMK A01 T01850002  RH  029%=      5-min Rain = 0
KCL1 200111Z 16011KT 19/00 A298 RMK A01 T01860002  RH  029%=      5-min Rain = 0
KCL1 200112Z 17011KT 19/00 A298 RMK A01 T01860003  RH  029%=      5-min Rain = 0
KCL1 200113Z 17011KT 19/00 A298 RMK A01 T01870003  RH  029%=      5-min Rain = 0
KCL1 200114Z 17010KT 19/00 A298 RMK A01 T01870003  RH  029%=      5-min Rain = 0
KCL1 200115Z 16011KT 19/00 A298 RMK A01 T01870003  RH  029%=      5-min Rain = 0
KCL1 200116Z 16010KT 19/00 A298 RMK A01 T01860003  RH  029%=      5-min Rain = 0
KCL1 200117Z 16012KT 19/00 A298 RMK A01 T01860004  RH  029%=      5-min Rain = 0
KCL1 200118Z 17010KT 19/01 A298 RMK A01 T01860005  RH  029%=      5-min Rain = 0
KCL1 200119Z 16009KT 19/01 A298 RMK A01 T01860005  RH  029%=      5-min Rain = 0
KCL1 200120Z 16009KT 19/01 A298 RMK A01 T01860005  RH  030%=      5-min Rain = 0
KCL1 200121Z 16009KT 19/01 A298 RMK A01 T01850005  RH  030%=      5-min Rain = 0
KCL1 200122Z 16011KT 18/01 A298 RMK A01 T01840005  RH  030%=      5-min Rain = 0
KCL1 200123Z 16011KT 18/01 A298 RMK A01 T01840006  RH  030%=      5-min Rain = 0
KCL1 200124Z 16012KT 19/01 A298 RMK A01 T01850006  RH  030%=      5-min Rain = 0
KCL1 200125Z 17012KT 19/01 A298 RMK A01 T01860007  RH  030%=      5-min Rain = 0
KCL1 200126Z 16012G17KT 19/01 A298 RMK A01 T01870007  RH  030%=      5-min Rain = 0
KCL1 200127Z 15013KT 19/01 A298 RMK A01 T01870007  RH  030%=      5-min Rain = 0
KCL1 200128Z 16014KT 19/01 A298 RMK A01 T01880008  RH  030%=      5-min Rain = 0
KCL1 200129Z 17010KT 19/01 A298 RMK A01 T01890008  RH  030%=      5-min Rain = 0
KCL1 200130Z 16010KT 19/01 A298 RMK A01 T01880007  RH  030%=      5-min Rain = 0
KCL1 200131Z 17012KT 19/01 A298 RMK A01 T01870007  RH  030%=      5-min Rain = 0
KCL1 200132Z 16011G18KT 19/01 A298 RMK A01 T01860007  RH  030%=      5-min Rain = 0
KCL1 200133Z 17017KT 19/01 A298 RMK A01 T01870007  RH  030%=      5-min Rain = 0
KCL1 200134Z 17013KT 19/01 A298 RMK A01 T01890008  RH  030%=      5-min Rain = 0
KCL1 200135Z 16013KT 19/01 A298 RMK A01 T01900008  RH  030%=      5-min Rain = 0
KCL1 200136Z 16011KT 19/01 A298 RMK A01 T01900008  RH  029%=      5-min Rain = 0
KCL1 200137Z 17011KT 19/01 A298 RMK A01 T01890008  RH  030%=      5-min Rain = 0
KCL1 200138Z 17010KT 19/01 A298 RMK A01 T01880007  RH  030%=      5-min Rain = 0
KCL1 200139Z 17010KT 19/01 A298 RMK A01 T01870008  RH  030%=      5-min Rain = 0
KCL1 200140Z 16010KT 19/01 A298 RMK A01 T01860007  RH  030%=      5-min Rain = 0
KCL1 200141Z 17009KT 19/01 A298 RMK A01 T01850007  RH  030%=      5-min Rain = 0
KCL1 200142Z 16011KT 19/01 A298 RMK A01 T01850007  RH  030%=      5-min Rain = 0
KCL1 200143Z 16012KT 18/01 A298 RMK A01 T01840007  RH  030%=      5-min Rain = 0
KCL1 200144Z 16013KT 19/01 A298 RMK A01 T01860008  RH  030%=      5-min Rain = 0
KCL1 200145Z 17012KT 19/01 A298 RMK A01 T01870008  RH  030%=      5-min Rain = 0
KCL1 200146Z 16012KT 19/01 A298 RMK A01 T01870008  RH  030%=      5-min Rain = 0
KCL1 200147Z 16011KT 19/01 A298 RMK A01 T01870008  RH  030%=      5-min Rain = 0
KCL1 200148Z 17010KT 19/01 A298 RMK A01 T01870008  RH  030%=      5-min Rain = 0
KCL1 200149Z 17010KT 19/01 A298 RMK A01 T01850007  RH  030%=      5-min Rain = 0
KCL1 200150Z 16012KT 19/01 A298 RMK A01 T01850008  RH  030%=      5-min Rain = 0
KCL1 200151Z 17010KT 19/01 A298 RMK A01 T01850007  RH  030%=      5-min Rain = 0
KCL1 200152Z 18009KT 18/01 A298 RMK A01 T01840007  RH  030%=      5-min Rain = 0
KCL1 200153Z 17010KT 19/01 A298 RMK A01 T01850007  RH  030%=      5-min Rain = 0
KCL1 200154Z 16010KT 18/01 A298 RMK A01 T01840007  RH  030%=      5-min Rain = 0
KCL1 200155Z 17008KT 18/01 A298 RMK A01 T01840007  RH  030%=      5-min Rain = 0
KCL1 200156Z 17010KT 18/01 A298 RMK A01 T01840007  RH  030%=      5-min Rain = 0
KCL1 200157Z 17010G16KT 18/01 A298 RMK A01 T01840008  RH  031%=      5-min Rain = 0
KCL1 200158Z 17009KT 18/01 A298 RMK A01 T01830007  RH  031%=      5-min Rain = 0
KCL1 200159Z 17014KT 18/01 A298 RMK A01 T01830007  RH  031%=      5-min Rain = 0
KCL1 200200Z 16009KT 18/01 A298 RMK A01 T01840007  RH  031%=      5-min Rain = 0
KCL1 200201Z 17010KT 18/01 A298 RMK A01 T01840007  RH  030%=      5-min Rain = 0
KCL1 200202Z 16012KT 18/01 A298 RMK A01 T01840007  RH  030%=      5-min Rain = 0
KCL1 200203Z 17009KT 18/01 A298 RMK A01 T01840007  RH  030%=      5-min Rain = 0
KCL1 200204Z 17010KT 18/01 A298 RMK A01 T01840007  RH  030%=      5-min Rain = 0
KCL1 200205Z 17009KT 18/01 A298 RMK A01 T01830006  RH  030%=      5-min Rain = 0
KCL1 200206Z 17010KT 18/01 A298 RMK A01 T01840006  RH  030%=      5-min Rain = 0
KCL1 200207Z 17010KT 18/01 A298 RMK A01 T01840006  RH  030%=      5-min Rain = 0
KCL1 200208Z 17013KT 18/01 A298 RMK A01 T01830006  RH  030%=      5-min Rain = 0
KCL1 200209Z 15011G17KT 18/01 A298 RMK A01 T01840006  RH  030%=      5-min Rain = 0
KCL1 200210Z 16009KT 19/01 A298 RMK A01 T01850007  RH  030%=      5-min Rain = 0
KCL1 200211Z 16013KT 18/01 A298 RMK A01 T01840006  RH  030%=      5-min Rain = 0
KCL1 200212Z 16011KT 18/01 A298 RMK A01 T01840006  RH  030%=      5-min Rain = 0
KCL1 200213Z 17010KT 18/01 A298 RMK A01 T01840006  RH  030%=      5-min Rain = 0
KCL1 200214Z 17011KT 18/01 A298 RMK A01 T01840006  RH  030%=      5-min Rain = 0
KCL1 200215Z 17008KT 18/01 A298 RMK A01 T01840006  RH  030%=      5-min Rain = 0
KCL1 200216Z 17012KT 18/01 A298 RMK A01 T01830006  RH  030%=      5-min Rain = 0
KCL1 200217Z 17013KT 18/01 A298 RMK A01 T01830005  RH  030%=      5-min Rain = 0
KCL1 200218Z 16013KT 19/01 A298 RMK A01 T01850006  RH  030%=      5-min Rain = 0
KCL1 200219Z 16012KT 19/01 A298 RMK A01 T01860005  RH  030%=      5-min Rain = 0
KCL1 200220Z 17008KT 19/01 A298 RMK A01 T01860006  RH  030%=      5-min Rain = 0
KCL1 200221Z 16009KT 18/01 A298 RMK A01 T01840006  RH  030%=      5-min Rain = 0
KCL1 200222Z 17010KT 18/01 A298 RMK A01 T01830005  RH  030%=      5-min Rain = 0
KCL1 200223Z 16009KT 18/01 A298 RMK A01 T01810005  RH  030%=      5-min Rain = 0
KCL1 200224Z 17011G16KT 18/01 A298 RMK A01 T01810005  RH  031%=      5-min Rain = 0
KCL1 200225Z 17012KT 18/01 A298 RMK A01 T01810005  RH  031%=      5-min Rain = 0
KCL1 200226Z 16010KT 18/01 A298 RMK A01 T01830006  RH  030%=      5-min Rain = 0
KCL1 200227Z 16009KT 18/01 A298 RMK A01 T01830006  RH  030%=      5-min Rain = 0
KCL1 200228Z 16009KT 18/01 A298 RMK A01 T01820005  RH  030%=      5-min Rain = 0
KCL1 200229Z 17011KT 18/01 A298 RMK A01 T01820006  RH  030%=      5-min Rain = 0
KCL1 200230Z 16009KT 18/01 A298 RMK A01 T01820006  RH  030%=      5-min Rain = 0
KCL1 200231Z 16010KT 18/01 A298 RMK A01 T01820006  RH  031%=      5-min Rain = 0
KCL1 200232Z 16011KT 18/01 A298 RMK A01 T01810006  RH  031%=      5-min Rain = 0
KCL1 200233Z 16009KT 18/01 A298 RMK A01 T01820006  RH  031%=      5-min Rain = 0
KCL1 200234Z 16009KT 18/01 A298 RMK A01 T01820006  RH  031%=      5-min Rain = 0
KCL1 200235Z 16011KT 18/01 A298 RMK A01 T01820006  RH  031%=      5-min Rain = 0
KCL1 200236Z 16010KT 18/01 A298 RMK A01 T01820006  RH  031%=      5-min Rain = 0
KCL1 200237Z 17010KT 18/01 A298 RMK A01 T01820006  RH  030%=      5-min Rain = 0
KCL1 200238Z 16010KT 18/01 A2981 RMK A01 T01830006  RH  030%=      5-min Rain = 0
KCL1 200239Z 16011KT 18/01 A2981 RMK A01 T01840006  RH  030%=      5-min Rain = 0
KCL1 200240Z 16011KT 18/01 A2981 RMK A01 T01830006  RH  030%=      5-min Rain = 0
KCL1 200241Z 16010KT 18/01 A2981 RMK A01 T01830006  RH  030%=      5-min Rain = 0
KCL1 200242Z 17009KT 18/01 A2981 RMK A01 T01830006  RH  030%=      5-min Rain = 0
KCL1 200243Z 17011KT 18/01 A2981 RMK A01 T01830007  RH  030%=      5-min Rain = 0
KCL1 200244Z 17009KT 18/01 A2981 RMK A01 T01830007  RH  031%=      5-min Rain = 0
KCL1 200245Z 16011KT 18/01 A2981 RMK A01 T01820007  RH  031%=      5-min Rain = 0
KCL1 200246Z 16011KT 18/01 A2981 RMK A01 T01820007  RH  031%=      5-min Rain = 0
KCL1 200247Z 16011KT 18/01 A2981 RMK A01 T01820007  RH  031%=      5-min Rain = 0
KCL1 200248Z 16010KT 18/01 A2981 RMK A01 T01820007  RH  031%=      5-min Rain = 0
KCL1 200249Z 17011KT 18/01 A2981 RMK A01 T01820007  RH  031%=      5-min Rain = 0
KCL1 200250Z 16010KT 18/01 A2981 RMK A01 T01820007  RH  031%=      5-min Rain = 0
KCL1 200251Z 16013KT 18/01 A2981 RMK A01 T01820007  RH  031%=      5-min Rain = 0
KCL1 200252Z 17010KT 18/01 A2981 RMK A01 T01820008  RH  031%=      5-min Rain = 0
KCL1 200253Z 16010KT 18/01 A2981 RMK A01 T01810008  RH  031%=      5-min Rain = 0
KCL1 200254Z 16009KT 18/01 A2981 RMK A01 T01800007  RH  031%=      5-min Rain = 0
KCL1 200255Z 16010KT 18/01 A2981 RMK A01 T01790008  RH  031%=      5-min Rain = 0
KCL1 200256Z 17010G15KT 18/01 A2981 RMK A01 T01790008  RH  032%=      5-min Rain = 0
KCL1 200257Z 16014KT 18/01 A2981 RMK A01 T01790008  RH  032%=      5-min Rain = 0
KCL1 200258Z 16013KT 18/01 A2981 RMK A01 T01810009  RH  031%=      5-min Rain = 0
KCL1 200259Z 16010KT 18/01 A2981 RMK A01 T01820009  RH  031%=      5-min Rain = 0
KCL1 200300Z 17009KT 18/01 A2981 RMK A01 T01820009  RH  031%=      5-min Rain = 0
KCL1 200301Z 17009KT 18/01 A2981 RMK A01 T01800008  RH  031%=      5-min Rain = 0
KCL1 200302Z 16011KT 18/01 A2981 RMK A01 T01790008  RH  032%=      5-min Rain = 0
KCL1 200303Z 17010KT 18/01 A2981 RMK A01 T01800008  RH  032%=      5-min Rain = 0
KCL1 200304Z 17009G14KT 18/01 A2981 RMK A01 T01800009  RH  032%=      5-min Rain = 0
KCL1 200305Z 17014KT 18/01 A2981 RMK A01 T01800008  RH  032%=      5-min Rain = 0
KCL1 200306Z 17010KT 18/01 A2981 RMK A01 T01800009  RH  032%=      5-min Rain = 0
KCL1 200307Z 16012KT 18/01 A2981 RMK A01 T01790008  RH  032%=      5-min Rain = 0
KCL1 200308Z 17011KT 18/01 A2981 RMK A01 T01800008  RH  031%=      5-min Rain = 0
KCL1 200309Z 17010KT 18/01 A2981 RMK A01 T01800009  RH  031%=      5-min Rain = 0
KCL1 200310Z 17011KT 18/01 A2981 RMK A01 T01800009  RH  032%=      5-min Rain = 0
KCL1 200311Z 16011KT 18/01 A2981 RMK A01 T01790009  RH  032%=      5-min Rain = 0
KCL1 200312Z 16011G16KT 18/01 A2981 RMK A01 T01790008  RH  032%=      5-min Rain = 0
KCL1 200313Z 16011KT 18/01 A2981 RMK A01 T01800009  RH  032%=      5-min Rain = 0
KCL1 200314Z 17011KT 18/01 A2981 RMK A01 T01800009  RH  032%=      5-min Rain = 0
KCL1 200315Z 16013KT 18/01 A2981 RMK A01 T01800009  RH  032%=      5-min Rain = 0
KCL1 200316Z 17015KT 18/01 A2981 RMK A01 T01800008  RH  031%=      5-min Rain = 0
KCL1 200317Z 17013KT 18/01 A2981 RMK A01 T01820009  RH  031%=      5-min Rain = 0
KCL1 200318Z 16010KT 18/01 A2981 RMK A01 T01820008  RH  031%=      5-min Rain = 0
KCL1 200319Z 16011KT 18/01 A2981 RMK A01 T01820008  RH  031%=      5-min Rain = 0
KCL1 200320Z 16012KT 18/01 A298 RMK A01 T01810008  RH  031%=      5-min Rain = 0
KCL1 200321Z 16010KT 18/01 A2981 RMK A01 T01820008  RH  031%=      5-min Rain = 0
KCL1 200322Z 16011KT 18/01 A2981 RMK A01 T01820008  RH  031%=      5-min Rain = 0
KCL1 200323Z 17012KT 18/01 A2981 RMK A01 T01810008  RH  031%=      5-min Rain = 0
KCL1 200324Z 17012KT 18/01 A2981 RMK A01 T01810007  RH  031%=      5-min Rain = 0
KCL1 200325Z 17010KT 18/01 A2981 RMK A01 T01820008  RH  031%=      5-min Rain = 0
KCL1 200326Z 17011KT 18/01 A2981 RMK A01 T01820007  RH  031%=      5-min Rain = 0
KCL1 200327Z 17009KT 18/01 A2981 RMK A01 T01820007  RH  031%=      5-min Rain = 0
KCL1 200328Z 16009KT 18/01 A2981 RMK A01 T01820007  RH  031%=      5-min Rain = 0
KCL1 200329Z 16010KT 18/01 A2981 RMK A01 T01820006  RH  031%=      5-min Rain = 0
KCL1 200330Z 15011KT 18/01 A2981 RMK A01 T01810007  RH  031%=      5-min Rain = 0
KCL1 200331Z 17012G17KT 18/01 A2981 RMK A01 T01820007  RH  031%=      5-min Rain = 0
KCL1 200332Z 16011KT 18/01 A2981 RMK A01 T01830007  RH  031%=      5-min Rain = 0
KCL1 200333Z 17010KT 18/01 A2981 RMK A01 T01830007  RH  031%=      5-min Rain = 0
KCL1 200334Z 17012KT 18/01 A2981 RMK A01 T01820007  RH  031%=      5-min Rain = 0
KCL1 200335Z 16012KT 18/01 A2981 RMK A01 T01820007  RH  031%=      5-min Rain = 0
KCL1 200336Z 17011KT 18/01 A2981 RMK A01 T01820006  RH  031%=      5-min Rain = 0
KCL1 200337Z 17009KT 18/01 A2981 RMK A01 T01830006  RH  030%=      5-min Rain = 0
KCL1 200338Z 17010KT 18/01 A2981 RMK A01 T01820006  RH  031%=      5-min Rain = 0
KCL1 200339Z 16010KT 18/01 A2981 RMK A01 T01810006  RH  031%=      5-min Rain = 0
KCL1 200340Z 17011KT 18/01 A2981 RMK A01 T01810007  RH  031%=      5-min Rain = 0
KCL1 200341Z 18008KT 18/01 A2981 RMK A01 T01810006  RH  031%=      5-min Rain = 0
KCL1 200342Z 17010KT 18/01 A2981 RMK A01 T01810006  RH  031%=      5-min Rain = 0
KCL1 200343Z 17010KT 18/01 A2981 RMK A01 T01800006  RH  031%=      5-min Rain = 0
KCL1 200344Z 17011KT 18/01 A2981 RMK A01 T01790006  RH  031%=      5-min Rain = 0
KCL1 200345Z 18012KT 18/01 A2981 RMK A01 T01790006  RH  031%=      5-min Rain = 0
KCL1 200346Z 16011KT 18/01 A2981 RMK A01 T01810007  RH  031%=      5-min Rain = 0
KCL1 200347Z 18010KT 18/01 A2981 RMK A01 T01800007  RH  031%=      5-min Rain = 0
KCL1 200348Z 18010KT 18/01 A2981 RMK A01 T01790006  RH  031%=      5-min Rain = 0
KCL1 200349Z 17008KT 18/01 A2981 RMK A01 T01790007  RH  031%=      5-min Rain = 0
KCL1 200350Z 18009KT 18/01 A2981 RMK A01 T01780007  RH  032%=      5-min Rain = 0
KCL1 200351Z 19009KT 18/01 A2981 RMK A01 T01780007  RH  032%=      5-min Rain = 0
KCL1 200352Z 17010KT 18/01 A2981 RMK A01 T01790007  RH  032%=      5-min Rain = 0
KCL1 200353Z 17011KT 18/01 A2981 RMK A01 T01790008  RH  032%=      5-min Rain = 0
KCL1 200354Z 18009KT 18/01 A2981 RMK A01 T01790008  RH  032%=      5-min Rain = 0
KCL1 200355Z 17009KT 18/01 A2981 RMK A01 T01790009  RH  032%=      5-min Rain = 0
KCL1 200356Z 17008KT 18/01 A2981 RMK A01 T01780008  RH  032%=      5-min Rain = 0
KCL1 200357Z 18008KT 18/01 A2981 RMK A01 T01770009  RH  032%=      5-min Rain = 0
KCL1 200358Z 17008KT 18/01 A2981 RMK A01 T01760009  RH  032%=      5-min Rain = 0
KCL1 200359Z 17007KT 18/01 A2981 RMK A01 T01770009  RH  032%=      5-min Rain = 0
KCL1 200400Z 18009KT 18/01 A2981 RMK A01 T01760009  RH  032%=      5-min Rain = 0
KCL1 200401Z 18008KT 18/01 A2981 RMK A01 T01750009  RH  032%=      5-min Rain = 0
KCL1 200402Z 17008KT 18/01 A2981 RMK A01 T01760009  RH  033%=      5-min Rain = 0
KCL1 200403Z 18008KT 18/01 A2981 RMK A01 T01750009  RH  033%=      5-min Rain = 0
KCL1 200404Z 16008KT 17/01 A2981 RMK A01 T01740009  RH  033%=      5-min Rain = 0
KCL1 200405Z 17008KT 17/01 A2981 RMK A01 T01740009  RH  033%=      5-min Rain = 0
KCL1 200406Z 17007KT 17/01 A2981 RMK A01 T01740008  RH  033%=      5-min Rain = 0
KCL1 200407Z 18009KT 18/01 A2981 RMK A01 T01750009  RH  033%=      5-min Rain = 0
KCL1 200408Z 17008KT 18/01 A2981 RMK A01 T01750009  RH  033%=      5-min Rain = 0
KCL1 200409Z 18008KT 18/01 A2981 RMK A01 T01750009  RH  033%=      5-min Rain = 0
KCL1 200410Z 18008KT 17/01 A2981 RMK A01 T01740008  RH  033%=      5-min Rain = 0
KCL1 200411Z 17008KT 17/01 A2981 RMK A01 T01740008  RH  033%=      5-min Rain = 0
KCL1 200412Z 17008KT 17/01 A2981 RMK A01 T01740009  RH  033%=      5-min Rain = 0
KCL1 200413Z 18008KT 17/01 A2981 RMK A01 T01740008  RH  033%=      5-min Rain = 0
KCL1 200414Z 16007KT 17/01 A2981 RMK A01 T01730008  RH  033%=      5-min Rain = 0
KCL1 200415Z 18010KT 17/01 A2981 RMK A01 T01720007  RH  033%=      5-min Rain = 0
KCL1 200416Z 18010KT 17/01 A2981 RMK A01 T01720006  RH  033%=      5-min Rain = 0
KCL1 200417Z 19008KT 17/01 A2981 RMK A01 T01730006  RH  032%=      5-min Rain = 0
KCL1 200418Z 18007KT 17/01 A2981 RMK A01 T01740006  RH  032%=      5-min Rain = 0
KCL1 200419Z 20006KT 17/01 A2981 RMK A01 T01740007  RH  032%=      5-min Rain = 0
KCL1 200420Z 19007KT 17/01 A2981 RMK A01 T01740007  RH  032%=      5-min Rain = 0
KCL1 200421Z 19007KT 17/01 A298 RMK A01 T01740006  RH  032%=      5-min Rain = 0
KCL1 200422Z 20007KT 17/01 A298 RMK A01 T01730006  RH  032%=      5-min Rain = 0
KCL1 200423Z 18008KT 17/01 A298 RMK A01 T01730006  RH  032%=      5-min Rain = 0
KCL1 200424Z 18008KT 17/01 A298 RMK A01 T01720005  RH  032%=      5-min Rain = 0
KCL1 200425Z 17007KT 17/01 A298 RMK A01 T01720005  RH  032%=      5-min Rain = 0
KCL1 200426Z 17007KT 17/01 A298 RMK A01 T01720005  RH  032%=      5-min Rain = 0
KCL1 200427Z 18009KT 17/00 A298 RMK A01 T01710004  RH  032%=      5-min Rain = 0
KCL1 200428Z 18008KT 17/00 A298 RMK A01 T01710004  RH  032%=      5-min Rain = 0
KCL1 200429Z 18008KT 17/00 A298 RMK A01 T01710004  RH  032%=      5-min Rain = 0
KCL1 200430Z 17007KT 17/00 A298 RMK A01 T01710004  RH  032%=      5-min Rain = 0
KCL1 200431Z 16007KT 17/00 A298 RMK A01 T01710004  RH  032%=      5-min Rain = 0
KCL1 200432Z 16008KT 17/00 A298 RMK A01 T01690004  RH  032%=      5-min Rain = 0
KCL1 200433Z 16010KT 17/00 A298 RMK A01 T01690003  RH  032%=      5-min Rain = 0
KCL1 200434Z 17007KT 17/00 A298 RMK A01 T01680003  RH  032%=      5-min Rain = 0
KCL1 200435Z 16008KT 17/00 A298 RMK A01 T01680002  RH  032%=      5-min Rain = 0
KCL1 200436Z 17011KT 17/00 A298 RMK A01 T01680002  RH  032%=      5-min Rain = 0
KCL1 200437Z 18011KT 17/00 A298 RMK A01 T01690001  RH  032%=      5-min Rain = 0
KCL1 200438Z 17011KT 17/00 A298 RMK A01 T01700001  RH  032%=      5-min Rain = 0
KCL1 200439Z 17009KT 17/00 A298 RMK A01 T01700002  RH  032%=      5-min Rain = 0
KCL1 200440Z 16007KT 17/00 A298 RMK A01 T01700002  RH  032%=      5-min Rain = 0
KCL1 200441Z 17008KT 17/00 A298 RMK A01 T01690001  RH  032%=      5-min Rain = 0
KCL1 200442Z 16008KT 17/00 A298 RMK A01 T01680001  RH  032%=      5-min Rain = 0
KCL1 200443Z 17009KT 17/00 A298 RMK A01 T01670001  RH  032%=      5-min Rain = 0
KCL1 200444Z 17009KT 17/00 A298 RMK A01 T01660001  RH  033%=      5-min Rain = 0
KCL1 200445Z 16009KT 17/00 A298 RMK A01 T01650001  RH  033%=      5-min Rain = 0
KCL1 200446Z 16009KT 17/00 A298 RMK A01 T01650000  RH  033%=      5-min Rain = 0
KCL1 200447Z 16008KT 17/00 A298 RMK A01 T01650000  RH  033%=      5-min Rain = 0
KCL1 200448Z 16008KT 17/00 A298 RMK A01 T01650001  RH  033%=      5-min Rain = 0
KCL1 200449Z 16008KT 17/00 A298 RMK A01 T01650001  RH  033%=      5-min Rain = 0
KCL1 200450Z 17011KT 16/00 A298 RMK A01 T01640001  RH  033%=      5-min Rain = 0
KCL1 200451Z 16008KT 16/00 A298 RMK A01 T016400-0  RH  033%=      5-min Rain = 0
KCL1 200452Z 16009KT 16/00 A298 RMK A01 T016400-0  RH  033%=      5-min Rain = 0
KCL1 200453Z 16006KT 16/00 A298 RMK A01 T016400-0  RH  033%=      5-min Rain = 0
KCL1 200454Z 16008KT 16/00 A298 RMK A01 T016300-0  RH  033%=      5-min Rain = 0
KCL1 200455Z 17010KT 16/M00 A298 RMK A01 T01631001  RH  033%=      5-min Rain = 0
KCL1 200456Z 16009KT 16/M00 A298 RMK A01 T01631001  RH  033%=      5-min Rain = 0
KCL1 200457Z 17007KT 16/M00 A298 RMK A01 T01641001  RH  033%=      5-min Rain = 0
KCL1 200458Z 17006KT 16/M00 A298 RMK A01 T01641001  RH  033%=      5-min Rain = 0
KCL1 200459Z 17005KT 16/M00 A298 RMK A01 T01631001  RH  033%=      5-min Rain = 0
KCL1 200500Z 16007KT 16/M00 A298 RMK A01 T01621001  RH  033%=      5-min Rain = 0
KCL1 200501Z 17007KT 16/M00 A298 RMK A01 T01621002  RH  033%=      5-min Rain = 0
KCL1 200502Z 17007KT 16/M00 A298 RMK A01 T01621002  RH  033%=      5-min Rain = 0
KCL1 200503Z 18008KT 16/M00 A298 RMK A01 T01621002  RH  033%=      5-min Rain = 0
KCL1 200504Z 17008KT 16/M00 A298 RMK A01 T01641002  RH  032%=      5-min Rain = 0
KCL1 200505Z 18008KT 16/M00 A298 RMK A01 T01641003  RH  032%=      5-min Rain = 0
KCL1 200506Z 17009KT 16/M00 A298 RMK A01 T01641003  RH  032%=      5-min Rain = 0
KCL1 200507Z 16007KT 17/M00 A298 RMK A01 T01651004  RH  032%=      5-min Rain = 0
KCL1 200508Z 17006KT 17/M00 A298 RMK A01 T01651003  RH  032%=      5-min Rain = 0
KCL1 200509Z 16005KT 16/M00 A298 RMK A01 T01641003  RH  032%=      5-min Rain = 0
KCL1 200510Z 16006KT 16/M00 A298 RMK A01 T01621003  RH  032%=      5-min Rain = 0
KCL1 200511Z 16006KT 16/M00 A298 RMK A01 T01611003  RH  033%=      5-min Rain = 0
KCL1 200512Z 16006KT 16/M00 A298 RMK A01 T01601003  RH  033%=      5-min Rain = 0
KCL1 200513Z 16006KT 16/M00 A298 RMK A01 T01591003  RH  033%=      5-min Rain = 0
KCL1 200514Z 16005KT 16/M00 A298 RMK A01 T01591003  RH  033%=      5-min Rain = 0
KCL1 200515Z 16005KT 16/M00 A298 RMK A01 T01581004  RH  033%=      5-min Rain = 0
KCL1 200516Z 15006KT 16/M00 A298 RMK A01 T01571004  RH  033%=      5-min Rain = 0
KCL1 200517Z 15005KT 16/M00 A298 RMK A01 T01561003  RH  034%=      5-min Rain = 0
KCL1 200518Z 16005KT 16/M00 A298 RMK A01 T01551003  RH  034%=      5-min Rain = 0
KCL1 200519Z 16005KT 15/M00 A298 RMK A01 T01541004  RH  034%=      5-min Rain = 0
KCL1 200520Z 16006KT 15/M00 A298 RMK A01 T01541003  RH  034%=      5-min Rain = 0
KCL1 200521Z 16005KT 15/M00 A298 RMK A01 T01541004  RH  034%=      5-min Rain = 0
KCL1 200522Z 18005KT 15/M00 A298 RMK A01 T01541004  RH  034%=      5-min Rain = 0
KCL1 200523Z 18007KT 15/M01 A298 RMK A01 T01541005  RH  034%=      5-min Rain = 0
KCL1 200524Z 16005KT 16/M00 A298 RMK A01 T01551004  RH  034%=      5-min Rain = 0
KCL1 200525Z 17007KT 16/M00 A298 RMK A01 T01561004  RH  033%=      5-min Rain = 0
KCL1 200526Z 16006KT 16/M00 A298 RMK A01 T01561004  RH  033%=      5-min Rain = 0
KCL1 200527Z 15005KT 16/M00 A298 RMK A01 T01551004  RH  034%=      5-min Rain = 0
KCL1 200528Z 15005KT 15/M00 A298 RMK A01 T01541004  RH  034%=      5-min Rain = 0
KCL1 200529Z 15004KT 15/M01 A298 RMK A01 T01531005  RH  034%=      5-min Rain = 0
KCL1 200530Z 16007KT 15/M01 A2979 RMK A01 T01521005  RH  034%=      5-min Rain = 0
KCL1 200531Z 16008KT 15/M01 A2979 RMK A01 T01521005  RH  034%=      5-min Rain = 0
KCL1 200532Z 15007KT 15/M00 A2979 RMK A01 T01531004  RH  034%=      5-min Rain = 0
KCL1 200533Z 15006KT 15/M00 A2979 RMK A01 T01541003  RH  034%=      5-min Rain = 0
KCL1 200534Z 15008KT 15/M00 A2979 RMK A01 T01531003  RH  034%=      5-min Rain = 0
KCL1 200535Z 15007KT 15/M00 A2979 RMK A01 T01531004  RH  034%=      5-min Rain = 0
KCL1 200536Z 13008KT 15/M00 A2979 RMK A01 T01541003  RH  034%=      5-min Rain = 0
KCL1 200537Z 14008KT 15/M00 A2979 RMK A01 T01541002  RH  034%=      5-min Rain = 0
KCL1 200538Z 14007KT 15/M00 A2979 RMK A01 T01511003  RH  035%=      5-min Rain = 0
KCL1 200539Z 14008KT 15/M00 A2979 RMK A01 T01491003  RH  035%=      5-min Rain = 0
KCL1 200540Z 15008KT 15/M00 A2979 RMK A01 T01481003  RH  036%=      5-min Rain = 0
KCL1 200541Z 15009KT 15/M00 A2979 RMK A01 T01471003  RH  036%=      5-min Rain = 0
KCL1 200542Z 15010KT 15/M00 A2979 RMK A01 T01471002  RH  036%=      5-min Rain = 0
KCL1 200543Z 15009KT 15/M00 A2979 RMK A01 T01471002  RH  036%=      5-min Rain = 0
KCL1 200544Z 16008KT 15/M00 A2979 RMK A01 T01481002  RH  036%=      5-min Rain = 0
KCL1 200545Z 16009KT 15/M00 A2979 RMK A01 T01491002  RH  036%=      5-min Rain = 0
KCL1 200546Z 17009KT 15/M00 A2979 RMK A01 T01501002  RH  035%=      5-min Rain = 0
KCL1 200547Z 17009KT 15/M00 A2979 RMK A01 T01501002  RH  035%=      5-min Rain = 0
KCL1 200548Z 17008KT 15/M00 A2979 RMK A01 T01511002  RH  035%=      5-min Rain = 0
KCL1 200549Z 18006KT 15/M00 A2979 RMK A01 T01521002  RH  035%=      5-min Rain = 0
KCL1 200550Z 18008KT 15/M00 A2979 RMK A01 T01531002  RH  035%=      5-min Rain = 0
KCL1 200551Z 18009KT 15/M00 A2979 RMK A01 T01541003  RH  034%=      5-min Rain = 0
KCL1 200552Z 18008KT 16/M00 A2979 RMK A01 T01561002  RH  034%=      5-min Rain = 0
KCL1 200553Z 19007KT 16/M00 A2979 RMK A01 T01571002  RH  034%=      5-min Rain = 0
KCL1 200554Z 19007KT 16/M00 A2979 RMK A01 T01571002  RH  034%=      5-min Rain = 0
KCL1 200555Z 19006KT 16/M00 A2979 RMK A01 T01571003  RH  034%=      5-min Rain = 0
KCL1 200556Z 19006KT 16/M00 A2979 RMK A01 T01571003  RH  034%=      5-min Rain = 0
KCL1 200557Z 18005KT 16/M00 A2979 RMK A01 T01571003  RH  034%=      5-min Rain = 0
KCL1 200558Z 19005KT 16/M00 A2979 RMK A01 T01571003  RH  034%=      5-min Rain = 0
KCL1 200559Z 20006KT 16/M00 A2979 RMK A01 T01581003  RH  033%=      5-min Rain = 0

Page generated in 0.0704 seconds.